<?xml version="1.0" encoding="UTF-8" standalone="no" ?>
<gpx xmlns="http://www.topografix.com/GPX/1/1" xmlns:xsi="http://www.w3.org/2001/XMLSchema-instance" xsi:schemaLocation="http://www.topografix.com/GPX/1/1 http://www.topografix.com/GPX/1/1/gpx.xsd" version="1.1" creator="VisuGPX - https://www.visugpx.com">
  <metadata>
    <name>La Roche St Secret - Mont Rachas - ruines de Béconne</name>
    <desc><![CDATA[randonnée faite en groupe le 10 juin 2020.
Conseil : après Béconne restez sur le GR et ne descendez pas vers La Chapelle comme nous (trop de chemins revêtus).
Au départ prendre le sentier à droite juste après le pont.]]></desc>
  </metadata>
  <trk>
    <name><![CDATA[2021-06-10 16:45:12]]></name>
    <trkseg>
      <trkpt lat="44.47718" lon="5.02871">
        <ele>345.37</ele>
        <time>2021-06-10T06:44:21Z</time>
      </trkpt>
      <trkpt lat="44.47727" lon="5.02874">
        <ele>346.28</ele>
        <time>2021-06-10T06:44:31Z</time>
      </trkpt>
      <trkpt lat="44.47733" lon="5.02876">
        <ele>346.36</ele>
        <time>2021-06-10T06:44:36Z</time>
      </trkpt>
      <trkpt lat="44.47751" lon="5.02878">
        <ele>346.39</ele>
        <time>2021-06-10T06:44:52Z</time>
      </trkpt>
      <trkpt lat="44.47752" lon="5.02878">
        <ele>346.4</ele>
        <time>2021-06-10T06:44:53Z</time>
      </trkpt>
      <trkpt lat="44.47755" lon="5.02879">
        <ele>346.41</ele>
        <time>2021-06-10T06:44:55Z</time>
      </trkpt>
      <trkpt lat="44.47772" lon="5.02886">
        <ele>346.4</ele>
        <time>2021-06-10T06:45:08Z</time>
      </trkpt>
      <trkpt lat="44.47777" lon="5.02887">
        <ele>346.43</ele>
        <time>2021-06-10T06:45:12Z</time>
      </trkpt>
      <trkpt lat="44.47795" lon="5.02899">
        <ele>347.01</ele>
        <time>2021-06-10T06:45:27Z</time>
      </trkpt>
      <trkpt lat="44.47821" lon="5.02894">
        <ele>347.46</ele>
        <time>2021-06-10T06:45:51Z</time>
      </trkpt>
      <trkpt lat="44.4785" lon="5.02902">
        <ele>347.98</ele>
        <time>2021-06-10T06:46:16Z</time>
      </trkpt>
      <trkpt lat="44.47872" lon="5.02899">
        <ele>347.59</ele>
        <time>2021-06-10T06:46:33Z</time>
      </trkpt>
      <trkpt lat="44.47897" lon="5.02895">
        <ele>345.69</ele>
        <time>2021-06-10T06:46:53Z</time>
      </trkpt>
      <trkpt lat="44.47913" lon="5.02892">
        <ele>345.15</ele>
        <time>2021-06-10T06:47:08Z</time>
      </trkpt>
      <trkpt lat="44.47935" lon="5.02887">
        <ele>344.09</ele>
        <time>2021-06-10T06:47:29Z</time>
      </trkpt>
      <trkpt lat="44.47954" lon="5.02883">
        <ele>342.71</ele>
        <time>2021-06-10T06:47:49Z</time>
      </trkpt>
      <trkpt lat="44.47976" lon="5.02878">
        <ele>341.3</ele>
        <time>2021-06-10T06:48:08Z</time>
      </trkpt>
      <trkpt lat="44.47994" lon="5.02862">
        <ele>340.01</ele>
        <time>2021-06-10T06:48:26Z</time>
      </trkpt>
      <trkpt lat="44.48003" lon="5.02843">
        <ele>339.72</ele>
        <time>2021-06-10T06:48:42Z</time>
      </trkpt>
      <trkpt lat="44.48002" lon="5.02843">
        <ele>339.74</ele>
        <time>2021-06-10T06:48:44Z</time>
      </trkpt>
      <trkpt lat="44.48004" lon="5.02835">
        <ele>340.09</ele>
        <time>2021-06-10T06:49:00Z</time>
      </trkpt>
      <trkpt lat="44.48004" lon="5.0283">
        <ele>340.09</ele>
        <time>2021-06-10T06:49:07Z</time>
      </trkpt>
      <trkpt lat="44.48006" lon="5.02827">
        <ele>340</ele>
        <time>2021-06-10T06:49:10Z</time>
      </trkpt>
      <trkpt lat="44.48009" lon="5.0282">
        <ele>339.59</ele>
        <time>2021-06-10T06:49:15Z</time>
      </trkpt>
      <trkpt lat="44.48022" lon="5.02788">
        <ele>339</ele>
        <time>2021-06-10T06:49:37Z</time>
      </trkpt>
      <trkpt lat="44.48036" lon="5.0276">
        <ele>337.99</ele>
        <time>2021-06-10T06:49:58Z</time>
      </trkpt>
      <trkpt lat="44.48054" lon="5.02734">
        <ele>337.9</ele>
        <time>2021-06-10T06:50:20Z</time>
      </trkpt>
      <trkpt lat="44.48072" lon="5.02711">
        <ele>338.63</ele>
        <time>2021-06-10T06:50:43Z</time>
      </trkpt>
      <trkpt lat="44.48099" lon="5.02687">
        <ele>340.6</ele>
        <time>2021-06-10T06:51:09Z</time>
      </trkpt>
      <trkpt lat="44.48115" lon="5.02665">
        <ele>340.67</ele>
        <time>2021-06-10T06:51:28Z</time>
      </trkpt>
      <trkpt lat="44.48133" lon="5.02639">
        <ele>343.16</ele>
        <time>2021-06-10T06:51:49Z</time>
      </trkpt>
      <trkpt lat="44.4815" lon="5.02619">
        <ele>342.48</ele>
        <time>2021-06-10T06:52:06Z</time>
      </trkpt>
      <trkpt lat="44.48167" lon="5.02589">
        <ele>342.98</ele>
        <time>2021-06-10T06:52:29Z</time>
      </trkpt>
      <trkpt lat="44.48186" lon="5.02553">
        <ele>343.87</ele>
        <time>2021-06-10T06:52:56Z</time>
      </trkpt>
      <trkpt lat="44.48202" lon="5.0252">
        <ele>345.28</ele>
        <time>2021-06-10T06:53:19Z</time>
      </trkpt>
      <trkpt lat="44.48216" lon="5.02489">
        <ele>346.56</ele>
        <time>2021-06-10T06:53:42Z</time>
      </trkpt>
      <trkpt lat="44.48224" lon="5.0248">
        <ele>347.25</ele>
        <time>2021-06-10T06:53:52Z</time>
      </trkpt>
      <trkpt lat="44.48231" lon="5.02478">
        <ele>347.83</ele>
        <time>2021-06-10T06:53:58Z</time>
      </trkpt>
      <trkpt lat="44.48258" lon="5.02486">
        <ele>349.78</ele>
        <time>2021-06-10T06:54:22Z</time>
      </trkpt>
      <trkpt lat="44.48286" lon="5.025">
        <ele>350.02</ele>
        <time>2021-06-10T06:54:47Z</time>
      </trkpt>
      <trkpt lat="44.48318" lon="5.02517">
        <ele>351.02</ele>
        <time>2021-06-10T06:55:15Z</time>
      </trkpt>
      <trkpt lat="44.48351" lon="5.02531">
        <ele>351.73</ele>
        <time>2021-06-10T06:55:44Z</time>
      </trkpt>
      <trkpt lat="44.48383" lon="5.02543">
        <ele>353.82</ele>
        <time>2021-06-10T06:56:11Z</time>
      </trkpt>
      <trkpt lat="44.48407" lon="5.02547">
        <ele>353.39</ele>
        <time>2021-06-10T06:56:33Z</time>
      </trkpt>
      <trkpt lat="44.48434" lon="5.0255">
        <ele>354.1</ele>
        <time>2021-06-10T06:56:57Z</time>
      </trkpt>
      <trkpt lat="44.48454" lon="5.02553">
        <ele>354.05</ele>
        <time>2021-06-10T06:57:14Z</time>
      </trkpt>
      <trkpt lat="44.48478" lon="5.02558">
        <ele>353.5</ele>
        <time>2021-06-10T06:57:35Z</time>
      </trkpt>
      <trkpt lat="44.48486" lon="5.02562">
        <ele>354.41</ele>
        <time>2021-06-10T06:57:54Z</time>
      </trkpt>
      <trkpt lat="44.48489" lon="5.02563">
        <ele>354.41</ele>
        <time>2021-06-10T06:57:57Z</time>
      </trkpt>
      <trkpt lat="44.48504" lon="5.0257">
        <ele>354.57</ele>
        <time>2021-06-10T06:58:12Z</time>
      </trkpt>
      <trkpt lat="44.4853" lon="5.02587">
        <ele>354.92</ele>
        <time>2021-06-10T06:58:35Z</time>
      </trkpt>
      <trkpt lat="44.48552" lon="5.02607">
        <ele>354.07</ele>
        <time>2021-06-10T06:58:56Z</time>
      </trkpt>
      <trkpt lat="44.48572" lon="5.02622">
        <ele>353.21</ele>
        <time>2021-06-10T06:59:15Z</time>
      </trkpt>
      <trkpt lat="44.48591" lon="5.02639">
        <ele>353.75</ele>
        <time>2021-06-10T06:59:34Z</time>
      </trkpt>
      <trkpt lat="44.48598" lon="5.02649">
        <ele>353.57</ele>
        <time>2021-06-10T06:59:50Z</time>
      </trkpt>
      <trkpt lat="44.48601" lon="5.02649">
        <ele>354.14</ele>
        <time>2021-06-10T07:00:08Z</time>
      </trkpt>
      <trkpt lat="44.48603" lon="5.02656">
        <ele>354.4</ele>
        <time>2021-06-10T07:00:17Z</time>
      </trkpt>
      <trkpt lat="44.4861" lon="5.02662">
        <ele>353.78</ele>
        <time>2021-06-10T07:00:38Z</time>
      </trkpt>
      <trkpt lat="44.4862" lon="5.02667">
        <ele>353.54</ele>
        <time>2021-06-10T07:00:56Z</time>
      </trkpt>
      <trkpt lat="44.48622" lon="5.02672">
        <ele>354.07</ele>
        <time>2021-06-10T07:01:12Z</time>
      </trkpt>
      <trkpt lat="44.48629" lon="5.02679">
        <ele>354.36</ele>
        <time>2021-06-10T07:01:31Z</time>
      </trkpt>
      <trkpt lat="44.48632" lon="5.02684">
        <ele>354.1</ele>
        <time>2021-06-10T07:01:52Z</time>
      </trkpt>
      <trkpt lat="44.4865" lon="5.02695">
        <ele>353.59</ele>
        <time>2021-06-10T07:02:13Z</time>
      </trkpt>
      <trkpt lat="44.48669" lon="5.0271">
        <ele>353.27</ele>
        <time>2021-06-10T07:02:35Z</time>
      </trkpt>
      <trkpt lat="44.48689" lon="5.02723">
        <ele>352.96</ele>
        <time>2021-06-10T07:02:55Z</time>
      </trkpt>
      <trkpt lat="44.4871" lon="5.02737">
        <ele>353.76</ele>
        <time>2021-06-10T07:03:16Z</time>
      </trkpt>
      <trkpt lat="44.48734" lon="5.02752">
        <ele>353.41</ele>
        <time>2021-06-10T07:03:39Z</time>
      </trkpt>
      <trkpt lat="44.48758" lon="5.0277">
        <ele>353.29</ele>
        <time>2021-06-10T07:04:03Z</time>
      </trkpt>
      <trkpt lat="44.4878" lon="5.02784">
        <ele>353.7</ele>
        <time>2021-06-10T07:04:25Z</time>
      </trkpt>
      <trkpt lat="44.48804" lon="5.02803">
        <ele>353.96</ele>
        <time>2021-06-10T07:04:48Z</time>
      </trkpt>
      <trkpt lat="44.48827" lon="5.02815">
        <ele>354.26</ele>
        <time>2021-06-10T07:05:08Z</time>
      </trkpt>
      <trkpt lat="44.4884" lon="5.02811">
        <ele>353.03</ele>
        <time>2021-06-10T07:05:24Z</time>
      </trkpt>
      <trkpt lat="44.48846" lon="5.02818">
        <ele>352.45</ele>
        <time>2021-06-10T07:05:41Z</time>
      </trkpt>
      <trkpt lat="44.48854" lon="5.02838">
        <ele>354.17</ele>
        <time>2021-06-10T07:05:59Z</time>
      </trkpt>
      <trkpt lat="44.48858" lon="5.02854">
        <ele>354.7</ele>
        <time>2021-06-10T07:06:13Z</time>
      </trkpt>
      <trkpt lat="44.4886" lon="5.02857">
        <ele>354.75</ele>
        <time>2021-06-10T07:06:16Z</time>
      </trkpt>
      <trkpt lat="44.4888" lon="5.02879">
        <ele>355.49</ele>
        <time>2021-06-10T07:06:39Z</time>
      </trkpt>
      <trkpt lat="44.48902" lon="5.02897">
        <ele>356.18</ele>
        <time>2021-06-10T07:07:00Z</time>
      </trkpt>
      <trkpt lat="44.48927" lon="5.0292">
        <ele>356.74</ele>
        <time>2021-06-10T07:07:25Z</time>
      </trkpt>
      <trkpt lat="44.48948" lon="5.02946">
        <ele>357.24</ele>
        <time>2021-06-10T07:07:49Z</time>
      </trkpt>
      <trkpt lat="44.48973" lon="5.0299">
        <ele>358.29</ele>
        <time>2021-06-10T07:08:23Z</time>
      </trkpt>
      <trkpt lat="44.48992" lon="5.03025">
        <ele>359.48</ele>
        <time>2021-06-10T07:08:50Z</time>
      </trkpt>
      <trkpt lat="44.48997" lon="5.03031">
        <ele>359.62</ele>
        <time>2021-06-10T07:08:57Z</time>
      </trkpt>
      <trkpt lat="44.49002" lon="5.03039">
        <ele>359.52</ele>
        <time>2021-06-10T07:09:04Z</time>
      </trkpt>
      <trkpt lat="44.49021" lon="5.0306">
        <ele>359.38</ele>
        <time>2021-06-10T07:09:24Z</time>
      </trkpt>
      <trkpt lat="44.49042" lon="5.0306">
        <ele>359.72</ele>
        <time>2021-06-10T07:09:41Z</time>
      </trkpt>
      <trkpt lat="44.49066" lon="5.03043">
        <ele>360.25</ele>
        <time>2021-06-10T07:10:03Z</time>
      </trkpt>
      <trkpt lat="44.49082" lon="5.0303">
        <ele>360.77</ele>
        <time>2021-06-10T07:10:20Z</time>
      </trkpt>
      <trkpt lat="44.49106" lon="5.03009">
        <ele>362.46</ele>
        <time>2021-06-10T07:10:44Z</time>
      </trkpt>
      <trkpt lat="44.49132" lon="5.02986">
        <ele>363.35</ele>
        <time>2021-06-10T07:11:10Z</time>
      </trkpt>
      <trkpt lat="44.49147" lon="5.02977">
        <ele>364.7</ele>
        <time>2021-06-10T07:11:27Z</time>
      </trkpt>
      <trkpt lat="44.49179" lon="5.0297">
        <ele>365.95</ele>
        <time>2021-06-10T07:11:53Z</time>
      </trkpt>
      <trkpt lat="44.49205" lon="5.02985">
        <ele>367.17</ele>
        <time>2021-06-10T07:12:17Z</time>
      </trkpt>
      <trkpt lat="44.49222" lon="5.02996">
        <ele>367.58</ele>
        <time>2021-06-10T07:12:33Z</time>
      </trkpt>
      <trkpt lat="44.49242" lon="5.03006">
        <ele>368.38</ele>
        <time>2021-06-10T07:12:51Z</time>
      </trkpt>
      <trkpt lat="44.49267" lon="5.03019">
        <ele>368.72</ele>
        <time>2021-06-10T07:13:14Z</time>
      </trkpt>
      <trkpt lat="44.49297" lon="5.03031">
        <ele>370.04</ele>
        <time>2021-06-10T07:13:40Z</time>
      </trkpt>
      <trkpt lat="44.49319" lon="5.03048">
        <ele>372.16</ele>
        <time>2021-06-10T07:14:03Z</time>
      </trkpt>
      <trkpt lat="44.49326" lon="5.03055">
        <ele>372.66</ele>
        <time>2021-06-10T07:14:13Z</time>
      </trkpt>
      <trkpt lat="44.49329" lon="5.03057">
        <ele>372.79</ele>
        <time>2021-06-10T07:14:17Z</time>
      </trkpt>
      <trkpt lat="44.49348" lon="5.03078">
        <ele>373.86</ele>
        <time>2021-06-10T07:14:40Z</time>
      </trkpt>
      <trkpt lat="44.49367" lon="5.03095">
        <ele>375.84</ele>
        <time>2021-06-10T07:15:01Z</time>
      </trkpt>
      <trkpt lat="44.49371" lon="5.03096">
        <ele>376.11</ele>
        <time>2021-06-10T07:15:19Z</time>
      </trkpt>
      <trkpt lat="44.49374" lon="5.03096">
        <ele>376.13</ele>
        <time>2021-06-10T07:15:48Z</time>
      </trkpt>
      <trkpt lat="44.49375" lon="5.03095">
        <ele>376.26</ele>
        <time>2021-06-10T07:16:22Z</time>
      </trkpt>
      <trkpt lat="44.49369" lon="5.03092">
        <ele>376.79</ele>
        <time>2021-06-10T07:16:51Z</time>
      </trkpt>
      <trkpt lat="44.49367" lon="5.03094">
        <ele>376.48</ele>
        <time>2021-06-10T07:17:28Z</time>
      </trkpt>
      <trkpt lat="44.49367" lon="5.03091">
        <ele>377.16</ele>
        <time>2021-06-10T07:18:31Z</time>
      </trkpt>
      <trkpt lat="44.49372" lon="5.03091">
        <ele>376.97</ele>
        <time>2021-06-10T07:18:48Z</time>
      </trkpt>
      <trkpt lat="44.49389" lon="5.03081">
        <ele>375.98</ele>
        <time>2021-06-10T07:19:06Z</time>
      </trkpt>
      <trkpt lat="44.49401" lon="5.0307">
        <ele>373.99</ele>
        <time>2021-06-10T07:19:22Z</time>
      </trkpt>
      <trkpt lat="44.49412" lon="5.03069">
        <ele>372.3</ele>
        <time>2021-06-10T07:19:34Z</time>
      </trkpt>
      <trkpt lat="44.49426" lon="5.03089">
        <ele>371.42</ele>
        <time>2021-06-10T07:19:50Z</time>
      </trkpt>
      <trkpt lat="44.49429" lon="5.0311">
        <ele>372.53</ele>
        <time>2021-06-10T07:20:06Z</time>
      </trkpt>
      <trkpt lat="44.49436" lon="5.03132">
        <ele>375.64</ele>
        <time>2021-06-10T07:20:25Z</time>
      </trkpt>
      <trkpt lat="44.49441" lon="5.03148">
        <ele>377.51</ele>
        <time>2021-06-10T07:20:39Z</time>
      </trkpt>
      <trkpt lat="44.4945" lon="5.03164">
        <ele>380.8</ele>
        <time>2021-06-10T07:20:56Z</time>
      </trkpt>
      <trkpt lat="44.49466" lon="5.03162">
        <ele>382.48</ele>
        <time>2021-06-10T07:21:16Z</time>
      </trkpt>
      <trkpt lat="44.49478" lon="5.03149">
        <ele>385.56</ele>
        <time>2021-06-10T07:21:34Z</time>
      </trkpt>
      <trkpt lat="44.49493" lon="5.03136">
        <ele>388.3</ele>
        <time>2021-06-10T07:21:55Z</time>
      </trkpt>
      <trkpt lat="44.49512" lon="5.03128">
        <ele>391.34</ele>
        <time>2021-06-10T07:22:18Z</time>
      </trkpt>
      <trkpt lat="44.49526" lon="5.03121">
        <ele>394.34</ele>
        <time>2021-06-10T07:22:40Z</time>
      </trkpt>
      <trkpt lat="44.49534" lon="5.03121">
        <ele>395.63</ele>
        <time>2021-06-10T07:23:00Z</time>
      </trkpt>
      <trkpt lat="44.49543" lon="5.0312">
        <ele>397.64</ele>
        <time>2021-06-10T07:23:21Z</time>
      </trkpt>
      <trkpt lat="44.49544" lon="5.0312">
        <ele>397.71</ele>
        <time>2021-06-10T07:23:23Z</time>
      </trkpt>
      <trkpt lat="44.49551" lon="5.0312">
        <ele>397.98</ele>
        <time>2021-06-10T07:23:32Z</time>
      </trkpt>
      <trkpt lat="44.49567" lon="5.03119">
        <ele>400.57</ele>
        <time>2021-06-10T07:23:51Z</time>
      </trkpt>
      <trkpt lat="44.49574" lon="5.03096">
        <ele>403.39</ele>
        <time>2021-06-10T07:24:14Z</time>
      </trkpt>
      <trkpt lat="44.49571" lon="5.03076">
        <ele>406.42</ele>
        <time>2021-06-10T07:24:32Z</time>
      </trkpt>
      <trkpt lat="44.49564" lon="5.0306">
        <ele>408.02</ele>
        <time>2021-06-10T07:24:50Z</time>
      </trkpt>
      <trkpt lat="44.49568" lon="5.03044">
        <ele>410.31</ele>
        <time>2021-06-10T07:25:12Z</time>
      </trkpt>
      <trkpt lat="44.49581" lon="5.03049">
        <ele>413.34</ele>
        <time>2021-06-10T07:25:31Z</time>
      </trkpt>
      <trkpt lat="44.49586" lon="5.03035">
        <ele>416.35</ele>
        <time>2021-06-10T07:25:49Z</time>
      </trkpt>
      <trkpt lat="44.49593" lon="5.03018">
        <ele>419.41</ele>
        <time>2021-06-10T07:26:07Z</time>
      </trkpt>
      <trkpt lat="44.49604" lon="5.02988">
        <ele>421.13</ele>
        <time>2021-06-10T07:26:34Z</time>
      </trkpt>
      <trkpt lat="44.49622" lon="5.02956">
        <ele>424.15</ele>
        <time>2021-06-10T07:27:06Z</time>
      </trkpt>
      <trkpt lat="44.49629" lon="5.02931">
        <ele>427.25</ele>
        <time>2021-06-10T07:27:31Z</time>
      </trkpt>
      <trkpt lat="44.49632" lon="5.02911">
        <ele>430.33</ele>
        <time>2021-06-10T07:27:50Z</time>
      </trkpt>
      <trkpt lat="44.49636" lon="5.02887">
        <ele>432.07</ele>
        <time>2021-06-10T07:28:11Z</time>
      </trkpt>
      <trkpt lat="44.49637" lon="5.02885">
        <ele>432.42</ele>
        <time>2021-06-10T07:28:51Z</time>
      </trkpt>
      <trkpt lat="44.49637" lon="5.02887">
        <ele>431.26</ele>
        <time>2021-06-10T07:29:09Z</time>
      </trkpt>
      <trkpt lat="44.49637" lon="5.02888">
        <ele>431.57</ele>
        <time>2021-06-10T07:30:15Z</time>
      </trkpt>
      <trkpt lat="44.49639" lon="5.02887">
        <ele>431.65</ele>
        <time>2021-06-10T07:31:48Z</time>
      </trkpt>
      <trkpt lat="44.49638" lon="5.02888">
        <ele>431.81</ele>
        <time>2021-06-10T07:33:14Z</time>
      </trkpt>
      <trkpt lat="44.49639" lon="5.02886">
        <ele>432.66</ele>
        <time>2021-06-10T07:34:53Z</time>
      </trkpt>
      <trkpt lat="44.49639" lon="5.02887">
        <ele>432.08</ele>
        <time>2021-06-10T07:36:23Z</time>
      </trkpt>
      <trkpt lat="44.49638" lon="5.02887">
        <ele>432.83</ele>
        <time>2021-06-10T07:37:58Z</time>
      </trkpt>
      <trkpt lat="44.49639" lon="5.02886">
        <ele>434.42</ele>
        <time>2021-06-10T07:39:00Z</time>
      </trkpt>
      <trkpt lat="44.49639" lon="5.02885">
        <ele>434.29</ele>
        <time>2021-06-10T07:39:39Z</time>
      </trkpt>
      <trkpt lat="44.49636" lon="5.02883">
        <ele>434.15</ele>
        <time>2021-06-10T07:40:03Z</time>
      </trkpt>
      <trkpt lat="44.49638" lon="5.02883">
        <ele>434.02</ele>
        <time>2021-06-10T07:40:35Z</time>
      </trkpt>
      <trkpt lat="44.49644" lon="5.02872">
        <ele>433.94</ele>
        <time>2021-06-10T07:40:50Z</time>
      </trkpt>
      <trkpt lat="44.49657" lon="5.02858">
        <ele>434.89</ele>
        <time>2021-06-10T07:41:11Z</time>
      </trkpt>
      <trkpt lat="44.4967" lon="5.02863">
        <ele>435.92</ele>
        <time>2021-06-10T07:41:31Z</time>
      </trkpt>
      <trkpt lat="44.4968" lon="5.02872">
        <ele>437.77</ele>
        <time>2021-06-10T07:41:50Z</time>
      </trkpt>
      <trkpt lat="44.49693" lon="5.02869">
        <ele>440.42</ele>
        <time>2021-06-10T07:42:12Z</time>
      </trkpt>
      <trkpt lat="44.49704" lon="5.02862">
        <ele>442.38</ele>
        <time>2021-06-10T07:42:32Z</time>
      </trkpt>
      <trkpt lat="44.49722" lon="5.02849">
        <ele>445.45</ele>
        <time>2021-06-10T07:42:56Z</time>
      </trkpt>
      <trkpt lat="44.49736" lon="5.0283">
        <ele>448.47</ele>
        <time>2021-06-10T07:43:21Z</time>
      </trkpt>
      <trkpt lat="44.49745" lon="5.02819">
        <ele>450.53</ele>
        <time>2021-06-10T07:43:35Z</time>
      </trkpt>
      <trkpt lat="44.49745" lon="5.02814">
        <ele>451.42</ele>
        <time>2021-06-10T07:43:40Z</time>
      </trkpt>
      <trkpt lat="44.49743" lon="5.02797">
        <ele>452.41</ele>
        <time>2021-06-10T07:43:56Z</time>
      </trkpt>
      <trkpt lat="44.49748" lon="5.02775">
        <ele>455.48</ele>
        <time>2021-06-10T07:44:16Z</time>
      </trkpt>
      <trkpt lat="44.49753" lon="5.02761">
        <ele>456.93</ele>
        <time>2021-06-10T07:44:34Z</time>
      </trkpt>
      <trkpt lat="44.49754" lon="5.02756">
        <ele>456.93</ele>
        <time>2021-06-10T07:44:38Z</time>
      </trkpt>
      <trkpt lat="44.49754" lon="5.02737">
        <ele>456.84</ele>
        <time>2021-06-10T07:44:58Z</time>
      </trkpt>
      <trkpt lat="44.49754" lon="5.02721">
        <ele>459.87</ele>
        <time>2021-06-10T07:45:13Z</time>
      </trkpt>
      <trkpt lat="44.49753" lon="5.02705">
        <ele>460.73</ele>
        <time>2021-06-10T07:45:32Z</time>
      </trkpt>
      <trkpt lat="44.49749" lon="5.02704">
        <ele>461.41</ele>
        <time>2021-06-10T07:45:50Z</time>
      </trkpt>
      <trkpt lat="44.49751" lon="5.02701">
        <ele>461.58</ele>
        <time>2021-06-10T07:46:28Z</time>
      </trkpt>
      <trkpt lat="44.49748" lon="5.0268">
        <ele>464.01</ele>
        <time>2021-06-10T07:46:49Z</time>
      </trkpt>
      <trkpt lat="44.49748" lon="5.02662">
        <ele>467.12</ele>
        <time>2021-06-10T07:47:05Z</time>
      </trkpt>
      <trkpt lat="44.49756" lon="5.02647">
        <ele>470.28</ele>
        <time>2021-06-10T07:47:21Z</time>
      </trkpt>
      <trkpt lat="44.49763" lon="5.02623">
        <ele>472.37</ele>
        <time>2021-06-10T07:47:44Z</time>
      </trkpt>
      <trkpt lat="44.49772" lon="5.02604">
        <ele>474.13</ele>
        <time>2021-06-10T07:48:06Z</time>
      </trkpt>
      <trkpt lat="44.49783" lon="5.02581">
        <ele>475.66</ele>
        <time>2021-06-10T07:48:30Z</time>
      </trkpt>
      <trkpt lat="44.49789" lon="5.02553">
        <ele>476.19</ele>
        <time>2021-06-10T07:48:53Z</time>
      </trkpt>
      <trkpt lat="44.49799" lon="5.02529">
        <ele>476.6</ele>
        <time>2021-06-10T07:49:22Z</time>
      </trkpt>
      <trkpt lat="44.49799" lon="5.02529">
        <ele>476.49</ele>
        <time>2021-06-10T07:49:23Z</time>
      </trkpt>
      <trkpt lat="44.49792" lon="5.02522">
        <ele>476.75</ele>
        <time>2021-06-10T07:49:37Z</time>
      </trkpt>
      <trkpt lat="44.49775" lon="5.02519">
        <ele>479.39</ele>
        <time>2021-06-10T07:50:04Z</time>
      </trkpt>
      <trkpt lat="44.49767" lon="5.02522">
        <ele>482.49</ele>
        <time>2021-06-10T07:50:22Z</time>
      </trkpt>
      <trkpt lat="44.49759" lon="5.02519">
        <ele>485.07</ele>
        <time>2021-06-10T07:50:42Z</time>
      </trkpt>
      <trkpt lat="44.4975" lon="5.0251">
        <ele>488.07</ele>
        <time>2021-06-10T07:51:05Z</time>
      </trkpt>
      <trkpt lat="44.49738" lon="5.02501">
        <ele>488</ele>
        <time>2021-06-10T07:51:29Z</time>
      </trkpt>
      <trkpt lat="44.49736" lon="5.02485">
        <ele>484.99</ele>
        <time>2021-06-10T07:51:46Z</time>
      </trkpt>
      <trkpt lat="44.49743" lon="5.02473">
        <ele>482.4</ele>
        <time>2021-06-10T07:52:02Z</time>
      </trkpt>
      <trkpt lat="44.49745" lon="5.02454">
        <ele>479.89</ele>
        <time>2021-06-10T07:52:21Z</time>
      </trkpt>
      <trkpt lat="44.49736" lon="5.02448">
        <ele>477.59</ele>
        <time>2021-06-10T07:52:44Z</time>
      </trkpt>
      <trkpt lat="44.49729" lon="5.02448">
        <ele>479.36</ele>
        <time>2021-06-10T07:53:10Z</time>
      </trkpt>
      <trkpt lat="44.49726" lon="5.02432">
        <ele>482.42</ele>
        <time>2021-06-10T07:53:33Z</time>
      </trkpt>
      <trkpt lat="44.49726" lon="5.02432">
        <ele>483.85</ele>
        <time>2021-06-10T07:54:01Z</time>
      </trkpt>
      <trkpt lat="44.49725" lon="5.02434">
        <ele>484.59</ele>
        <time>2021-06-10T07:54:59Z</time>
      </trkpt>
      <trkpt lat="44.49725" lon="5.0242">
        <ele>484.73</ele>
        <time>2021-06-10T07:55:28Z</time>
      </trkpt>
      <trkpt lat="44.49712" lon="5.02407">
        <ele>484.44</ele>
        <time>2021-06-10T07:55:48Z</time>
      </trkpt>
      <trkpt lat="44.49693" lon="5.0239">
        <ele>484.6</ele>
        <time>2021-06-10T07:56:14Z</time>
      </trkpt>
      <trkpt lat="44.49695" lon="5.02365">
        <ele>486</ele>
        <time>2021-06-10T07:56:39Z</time>
      </trkpt>
      <trkpt lat="44.49696" lon="5.02362">
        <ele>486.07</ele>
        <time>2021-06-10T07:56:41Z</time>
      </trkpt>
      <trkpt lat="44.49696" lon="5.02357">
        <ele>486.53</ele>
        <time>2021-06-10T07:56:45Z</time>
      </trkpt>
      <trkpt lat="44.49702" lon="5.02329">
        <ele>488.48</ele>
        <time>2021-06-10T07:57:06Z</time>
      </trkpt>
      <trkpt lat="44.49707" lon="5.02311">
        <ele>489.3</ele>
        <time>2021-06-10T07:57:20Z</time>
      </trkpt>
      <trkpt lat="44.49714" lon="5.02296">
        <ele>490.36</ele>
        <time>2021-06-10T07:57:32Z</time>
      </trkpt>
      <trkpt lat="44.49717" lon="5.02289">
        <ele>490.5</ele>
        <time>2021-06-10T07:57:38Z</time>
      </trkpt>
      <trkpt lat="44.4972" lon="5.02285">
        <ele>490.56</ele>
        <time>2021-06-10T07:57:42Z</time>
      </trkpt>
      <trkpt lat="44.49723" lon="5.0228">
        <ele>490.6</ele>
        <time>2021-06-10T07:57:47Z</time>
      </trkpt>
      <trkpt lat="44.49731" lon="5.02262">
        <ele>492.74</ele>
        <time>2021-06-10T07:58:05Z</time>
      </trkpt>
      <trkpt lat="44.49731" lon="5.02261">
        <ele>492.75</ele>
        <time>2021-06-10T07:58:06Z</time>
      </trkpt>
      <trkpt lat="44.49739" lon="5.02232">
        <ele>492.77</ele>
        <time>2021-06-10T07:58:28Z</time>
      </trkpt>
      <trkpt lat="44.49746" lon="5.02216">
        <ele>492.17</ele>
        <time>2021-06-10T07:58:44Z</time>
      </trkpt>
      <trkpt lat="44.49747" lon="5.02189">
        <ele>490.29</ele>
        <time>2021-06-10T07:59:06Z</time>
      </trkpt>
      <trkpt lat="44.49751" lon="5.02162">
        <ele>493.43</ele>
        <time>2021-06-10T07:59:32Z</time>
      </trkpt>
      <trkpt lat="44.4975" lon="5.02139">
        <ele>496.82</ele>
        <time>2021-06-10T07:59:53Z</time>
      </trkpt>
      <trkpt lat="44.49754" lon="5.02115">
        <ele>499.86</ele>
        <time>2021-06-10T08:00:16Z</time>
      </trkpt>
      <trkpt lat="44.49761" lon="5.02094">
        <ele>502.99</ele>
        <time>2021-06-10T08:00:39Z</time>
      </trkpt>
      <trkpt lat="44.49767" lon="5.02076">
        <ele>506.09</ele>
        <time>2021-06-10T08:00:57Z</time>
      </trkpt>
      <trkpt lat="44.49774" lon="5.0207">
        <ele>508.1</ele>
        <time>2021-06-10T08:01:19Z</time>
      </trkpt>
      <trkpt lat="44.49783" lon="5.02061">
        <ele>508.75</ele>
        <time>2021-06-10T08:01:43Z</time>
      </trkpt>
      <trkpt lat="44.49799" lon="5.02054">
        <ele>511.36</ele>
        <time>2021-06-10T08:02:13Z</time>
      </trkpt>
      <trkpt lat="44.49805" lon="5.02051">
        <ele>512.64</ele>
        <time>2021-06-10T08:02:41Z</time>
      </trkpt>
      <trkpt lat="44.49815" lon="5.02037">
        <ele>515.36</ele>
        <time>2021-06-10T08:03:06Z</time>
      </trkpt>
      <trkpt lat="44.49819" lon="5.02014">
        <ele>518.39</ele>
        <time>2021-06-10T08:03:26Z</time>
      </trkpt>
      <trkpt lat="44.49821" lon="5.01998">
        <ele>520.16</ele>
        <time>2021-06-10T08:03:44Z</time>
      </trkpt>
      <trkpt lat="44.49828" lon="5.01969">
        <ele>521.35</ele>
        <time>2021-06-10T08:04:05Z</time>
      </trkpt>
      <trkpt lat="44.49834" lon="5.01944">
        <ele>521.81</ele>
        <time>2021-06-10T08:04:24Z</time>
      </trkpt>
      <trkpt lat="44.49838" lon="5.01928">
        <ele>522.21</ele>
        <time>2021-06-10T08:04:39Z</time>
      </trkpt>
      <trkpt lat="44.49845" lon="5.01906">
        <ele>523.59</ele>
        <time>2021-06-10T08:04:58Z</time>
      </trkpt>
      <trkpt lat="44.49851" lon="5.01891">
        <ele>524.03</ele>
        <time>2021-06-10T08:05:11Z</time>
      </trkpt>
      <trkpt lat="44.49852" lon="5.01874">
        <ele>524.49</ele>
        <time>2021-06-10T08:05:28Z</time>
      </trkpt>
      <trkpt lat="44.49841" lon="5.01855">
        <ele>526.56</ele>
        <time>2021-06-10T08:05:50Z</time>
      </trkpt>
      <trkpt lat="44.49825" lon="5.01845">
        <ele>528.7</ele>
        <time>2021-06-10T08:06:14Z</time>
      </trkpt>
      <trkpt lat="44.49817" lon="5.01845">
        <ele>527.95</ele>
        <time>2021-06-10T08:06:32Z</time>
      </trkpt>
      <trkpt lat="44.49806" lon="5.01845">
        <ele>526.84</ele>
        <time>2021-06-10T08:06:49Z</time>
      </trkpt>
      <trkpt lat="44.49796" lon="5.01836">
        <ele>525.4</ele>
        <time>2021-06-10T08:07:09Z</time>
      </trkpt>
      <trkpt lat="44.49795" lon="5.01833">
        <ele>525.29</ele>
        <time>2021-06-10T08:07:31Z</time>
      </trkpt>
      <trkpt lat="44.49801" lon="5.01813">
        <ele>525.94</ele>
        <time>2021-06-10T08:07:50Z</time>
      </trkpt>
      <trkpt lat="44.49803" lon="5.01792">
        <ele>527.82</ele>
        <time>2021-06-10T08:08:10Z</time>
      </trkpt>
      <trkpt lat="44.49803" lon="5.01787">
        <ele>529</ele>
        <time>2021-06-10T08:08:53Z</time>
      </trkpt>
      <trkpt lat="44.49801" lon="5.01773">
        <ele>529.48</ele>
        <time>2021-06-10T08:09:10Z</time>
      </trkpt>
      <trkpt lat="44.49799" lon="5.01752">
        <ele>531.36</ele>
        <time>2021-06-10T08:09:31Z</time>
      </trkpt>
      <trkpt lat="44.498" lon="5.0173">
        <ele>532.56</ele>
        <time>2021-06-10T08:09:55Z</time>
      </trkpt>
      <trkpt lat="44.49803" lon="5.0172">
        <ele>533.26</ele>
        <time>2021-06-10T08:10:23Z</time>
      </trkpt>
      <trkpt lat="44.49807" lon="5.0171">
        <ele>533.9</ele>
        <time>2021-06-10T08:10:35Z</time>
      </trkpt>
      <trkpt lat="44.49806" lon="5.01703">
        <ele>534.89</ele>
        <time>2021-06-10T08:10:42Z</time>
      </trkpt>
      <trkpt lat="44.49797" lon="5.01671">
        <ele>535.87</ele>
        <time>2021-06-10T08:11:05Z</time>
      </trkpt>
      <trkpt lat="44.49794" lon="5.01638">
        <ele>536.48</ele>
        <time>2021-06-10T08:11:26Z</time>
      </trkpt>
      <trkpt lat="44.49789" lon="5.01605">
        <ele>536.94</ele>
        <time>2021-06-10T08:11:46Z</time>
      </trkpt>
      <trkpt lat="44.49782" lon="5.01575">
        <ele>537.54</ele>
        <time>2021-06-10T08:12:07Z</time>
      </trkpt>
      <trkpt lat="44.4978" lon="5.01551">
        <ele>538.19</ele>
        <time>2021-06-10T08:12:26Z</time>
      </trkpt>
      <trkpt lat="44.49787" lon="5.01532">
        <ele>537.76</ele>
        <time>2021-06-10T08:12:43Z</time>
      </trkpt>
      <trkpt lat="44.49785" lon="5.01515">
        <ele>536.5</ele>
        <time>2021-06-10T08:13:04Z</time>
      </trkpt>
      <trkpt lat="44.49768" lon="5.01488">
        <ele>537.74</ele>
        <time>2021-06-10T08:13:33Z</time>
      </trkpt>
      <trkpt lat="44.49761" lon="5.01485">
        <ele>536.63</ele>
        <time>2021-06-10T08:13:39Z</time>
      </trkpt>
      <trkpt lat="44.49748" lon="5.01487">
        <ele>536.27</ele>
        <time>2021-06-10T08:13:47Z</time>
      </trkpt>
      <trkpt lat="44.49735" lon="5.0149">
        <ele>536.52</ele>
        <time>2021-06-10T08:14:03Z</time>
      </trkpt>
      <trkpt lat="44.49732" lon="5.01486">
        <ele>536.54</ele>
        <time>2021-06-10T08:14:08Z</time>
      </trkpt>
      <trkpt lat="44.49715" lon="5.01454">
        <ele>536.52</ele>
        <time>2021-06-10T08:14:28Z</time>
      </trkpt>
      <trkpt lat="44.49704" lon="5.01439">
        <ele>536.38</ele>
        <time>2021-06-10T08:14:44Z</time>
      </trkpt>
      <trkpt lat="44.49688" lon="5.0141">
        <ele>538.71</ele>
        <time>2021-06-10T08:15:12Z</time>
      </trkpt>
      <trkpt lat="44.49681" lon="5.01394">
        <ele>541.81</ele>
        <time>2021-06-10T08:15:26Z</time>
      </trkpt>
      <trkpt lat="44.49671" lon="5.01374">
        <ele>543.33</ele>
        <time>2021-06-10T08:15:43Z</time>
      </trkpt>
      <trkpt lat="44.49663" lon="5.01352">
        <ele>542.93</ele>
        <time>2021-06-10T08:15:59Z</time>
      </trkpt>
      <trkpt lat="44.49656" lon="5.01327">
        <ele>542.54</ele>
        <time>2021-06-10T08:16:16Z</time>
      </trkpt>
      <trkpt lat="44.49653" lon="5.01302">
        <ele>543.92</ele>
        <time>2021-06-10T08:16:32Z</time>
      </trkpt>
      <trkpt lat="44.49653" lon="5.01293">
        <ele>543.75</ele>
        <time>2021-06-10T08:16:38Z</time>
      </trkpt>
      <trkpt lat="44.49659" lon="5.01275">
        <ele>544.63</ele>
        <time>2021-06-10T08:16:51Z</time>
      </trkpt>
      <trkpt lat="44.49667" lon="5.01258">
        <ele>545.38</ele>
        <time>2021-06-10T08:17:05Z</time>
      </trkpt>
      <trkpt lat="44.49667" lon="5.01256">
        <ele>545.38</ele>
        <time>2021-06-10T08:17:06Z</time>
      </trkpt>
      <trkpt lat="44.49668" lon="5.01251">
        <ele>545.35</ele>
        <time>2021-06-10T08:17:10Z</time>
      </trkpt>
      <trkpt lat="44.49668" lon="5.01248">
        <ele>545.17</ele>
        <time>2021-06-10T08:17:13Z</time>
      </trkpt>
      <trkpt lat="44.49656" lon="5.01244">
        <ele>544.13</ele>
        <time>2021-06-10T08:17:22Z</time>
      </trkpt>
      <trkpt lat="44.49653" lon="5.01244">
        <ele>543.77</ele>
        <time>2021-06-10T08:17:25Z</time>
      </trkpt>
      <trkpt lat="44.49649" lon="5.01244">
        <ele>543.46</ele>
        <time>2021-06-10T08:17:28Z</time>
      </trkpt>
      <trkpt lat="44.49631" lon="5.01237">
        <ele>544.74</ele>
        <time>2021-06-10T08:17:49Z</time>
      </trkpt>
      <trkpt lat="44.4963" lon="5.01236">
        <ele>544.74</ele>
        <time>2021-06-10T08:17:50Z</time>
      </trkpt>
      <trkpt lat="44.4963" lon="5.01217">
        <ele>544.37</ele>
        <time>2021-06-10T08:18:03Z</time>
      </trkpt>
      <trkpt lat="44.49633" lon="5.01192">
        <ele>542.99</ele>
        <time>2021-06-10T08:18:19Z</time>
      </trkpt>
      <trkpt lat="44.49633" lon="5.01175">
        <ele>541.71</ele>
        <time>2021-06-10T08:18:33Z</time>
      </trkpt>
      <trkpt lat="44.49634" lon="5.01153">
        <ele>541.97</ele>
        <time>2021-06-10T08:18:48Z</time>
      </trkpt>
      <trkpt lat="44.49634" lon="5.01127">
        <ele>541.72</ele>
        <time>2021-06-10T08:19:06Z</time>
      </trkpt>
      <trkpt lat="44.49633" lon="5.01114">
        <ele>541.55</ele>
        <time>2021-06-10T08:19:13Z</time>
      </trkpt>
      <trkpt lat="44.4963" lon="5.01093">
        <ele>541.26</ele>
        <time>2021-06-10T08:19:25Z</time>
      </trkpt>
      <trkpt lat="44.49634" lon="5.01067">
        <ele>540.2</ele>
        <time>2021-06-10T08:19:42Z</time>
      </trkpt>
      <trkpt lat="44.49636" lon="5.0104">
        <ele>539.6</ele>
        <time>2021-06-10T08:19:59Z</time>
      </trkpt>
      <trkpt lat="44.49641" lon="5.01019">
        <ele>539.79</ele>
        <time>2021-06-10T08:20:14Z</time>
      </trkpt>
      <trkpt lat="44.49644" lon="5.01012">
        <ele>540.01</ele>
        <time>2021-06-10T08:20:19Z</time>
      </trkpt>
      <trkpt lat="44.49648" lon="5.01008">
        <ele>540.1</ele>
        <time>2021-06-10T08:20:23Z</time>
      </trkpt>
      <trkpt lat="44.49647" lon="5.00981">
        <ele>542.84</ele>
        <time>2021-06-10T08:20:44Z</time>
      </trkpt>
      <trkpt lat="44.49643" lon="5.00972">
        <ele>542.73</ele>
        <time>2021-06-10T08:21:05Z</time>
      </trkpt>
      <trkpt lat="44.49641" lon="5.0097">
        <ele>542.29</ele>
        <time>2021-06-10T08:21:46Z</time>
      </trkpt>
      <trkpt lat="44.49641" lon="5.00965">
        <ele>542.08</ele>
        <time>2021-06-10T08:22:15Z</time>
      </trkpt>
      <trkpt lat="44.49646" lon="5.00933">
        <ele>542.5</ele>
        <time>2021-06-10T08:22:36Z</time>
      </trkpt>
      <trkpt lat="44.49642" lon="5.0092">
        <ele>542.98</ele>
        <time>2021-06-10T08:22:46Z</time>
      </trkpt>
      <trkpt lat="44.49635" lon="5.00907">
        <ele>543.38</ele>
        <time>2021-06-10T08:22:58Z</time>
      </trkpt>
      <trkpt lat="44.4963" lon="5.00894">
        <ele>543.61</ele>
        <time>2021-06-10T08:23:09Z</time>
      </trkpt>
      <trkpt lat="44.49627" lon="5.00879">
        <ele>545.16</ele>
        <time>2021-06-10T08:23:21Z</time>
      </trkpt>
      <trkpt lat="44.49628" lon="5.00871">
        <ele>545.91</ele>
        <time>2021-06-10T08:23:28Z</time>
      </trkpt>
      <trkpt lat="44.49629" lon="5.00866">
        <ele>546.22</ele>
        <time>2021-06-10T08:23:31Z</time>
      </trkpt>
      <trkpt lat="44.49631" lon="5.00843">
        <ele>546.88</ele>
        <time>2021-06-10T08:23:46Z</time>
      </trkpt>
      <trkpt lat="44.49634" lon="5.0082">
        <ele>548.43</ele>
        <time>2021-06-10T08:24:03Z</time>
      </trkpt>
      <trkpt lat="44.49638" lon="5.00794">
        <ele>549.59</ele>
        <time>2021-06-10T08:24:21Z</time>
      </trkpt>
      <trkpt lat="44.49644" lon="5.00765">
        <ele>551.68</ele>
        <time>2021-06-10T08:24:45Z</time>
      </trkpt>
      <trkpt lat="44.49646" lon="5.00724">
        <ele>554.43</ele>
        <time>2021-06-10T08:25:13Z</time>
      </trkpt>
      <trkpt lat="44.49646" lon="5.00692">
        <ele>556.77</ele>
        <time>2021-06-10T08:25:37Z</time>
      </trkpt>
      <trkpt lat="44.49646" lon="5.00654">
        <ele>559.83</ele>
        <time>2021-06-10T08:26:06Z</time>
      </trkpt>
      <trkpt lat="44.49636" lon="5.00633">
        <ele>562.25</ele>
        <time>2021-06-10T08:26:31Z</time>
      </trkpt>
      <trkpt lat="44.49622" lon="5.00609">
        <ele>563.27</ele>
        <time>2021-06-10T08:26:53Z</time>
      </trkpt>
      <trkpt lat="44.49606" lon="5.00587">
        <ele>564.76</ele>
        <time>2021-06-10T08:27:18Z</time>
      </trkpt>
      <trkpt lat="44.4959" lon="5.00557">
        <ele>564.25</ele>
        <time>2021-06-10T08:27:43Z</time>
      </trkpt>
      <trkpt lat="44.49586" lon="5.00535">
        <ele>562.5</ele>
        <time>2021-06-10T08:27:59Z</time>
      </trkpt>
      <trkpt lat="44.49594" lon="5.00513">
        <ele>561.07</ele>
        <time>2021-06-10T08:28:15Z</time>
      </trkpt>
      <trkpt lat="44.49597" lon="5.00509">
        <ele>560.83</ele>
        <time>2021-06-10T08:28:19Z</time>
      </trkpt>
      <trkpt lat="44.49604" lon="5.00504">
        <ele>560.78</ele>
        <time>2021-06-10T08:28:24Z</time>
      </trkpt>
      <trkpt lat="44.49614" lon="5.00495">
        <ele>560.65</ele>
        <time>2021-06-10T08:28:39Z</time>
      </trkpt>
      <trkpt lat="44.49617" lon="5.00481">
        <ele>560.7</ele>
        <time>2021-06-10T08:28:48Z</time>
      </trkpt>
      <trkpt lat="44.496" lon="5.00468">
        <ele>562.3</ele>
        <time>2021-06-10T08:29:10Z</time>
      </trkpt>
      <trkpt lat="44.49591" lon="5.00428">
        <ele>563</ele>
        <time>2021-06-10T08:29:38Z</time>
      </trkpt>
      <trkpt lat="44.49583" lon="5.00384">
        <ele>564.68</ele>
        <time>2021-06-10T08:30:07Z</time>
      </trkpt>
      <trkpt lat="44.49586" lon="5.00362">
        <ele>565.69</ele>
        <time>2021-06-10T08:30:27Z</time>
      </trkpt>
      <trkpt lat="44.49593" lon="5.00345">
        <ele>565.63</ele>
        <time>2021-06-10T08:30:45Z</time>
      </trkpt>
      <trkpt lat="44.49603" lon="5.00328">
        <ele>565.58</ele>
        <time>2021-06-10T08:31:02Z</time>
      </trkpt>
      <trkpt lat="44.49608" lon="5.00323">
        <ele>565.99</ele>
        <time>2021-06-10T08:31:08Z</time>
      </trkpt>
      <trkpt lat="44.49615" lon="5.003">
        <ele>565.77</ele>
        <time>2021-06-10T08:31:30Z</time>
      </trkpt>
      <trkpt lat="44.496" lon="5.00296">
        <ele>566.68</ele>
        <time>2021-06-10T08:31:53Z</time>
      </trkpt>
      <trkpt lat="44.4959" lon="5.00295">
        <ele>568.16</ele>
        <time>2021-06-10T08:32:07Z</time>
      </trkpt>
      <trkpt lat="44.49595" lon="5.0028">
        <ele>571.26</ele>
        <time>2021-06-10T08:32:33Z</time>
      </trkpt>
      <trkpt lat="44.49609" lon="5.00273">
        <ele>574.36</ele>
        <time>2021-06-10T08:32:57Z</time>
      </trkpt>
      <trkpt lat="44.49617" lon="5.00269">
        <ele>576.19</ele>
        <time>2021-06-10T08:33:14Z</time>
      </trkpt>
      <trkpt lat="44.49625" lon="5.00255">
        <ele>579.31</ele>
        <time>2021-06-10T08:33:37Z</time>
      </trkpt>
      <trkpt lat="44.49629" lon="5.00235">
        <ele>582.44</ele>
        <time>2021-06-10T08:34:01Z</time>
      </trkpt>
      <trkpt lat="44.49642" lon="5.00228">
        <ele>585.3</ele>
        <time>2021-06-10T08:34:24Z</time>
      </trkpt>
      <trkpt lat="44.49637" lon="5.00211">
        <ele>588.18</ele>
        <time>2021-06-10T08:34:49Z</time>
      </trkpt>
      <trkpt lat="44.49628" lon="5.00199">
        <ele>590.74</ele>
        <time>2021-06-10T08:35:17Z</time>
      </trkpt>
      <trkpt lat="44.49616" lon="5.00186">
        <ele>593.98</ele>
        <time>2021-06-10T08:35:44Z</time>
      </trkpt>
      <trkpt lat="44.49607" lon="5.0017">
        <ele>596.53</ele>
        <time>2021-06-10T08:36:11Z</time>
      </trkpt>
      <trkpt lat="44.49599" lon="5.00166">
        <ele>599.55</ele>
        <time>2021-06-10T08:36:39Z</time>
      </trkpt>
      <trkpt lat="44.49585" lon="5.00159">
        <ele>602.64</ele>
        <time>2021-06-10T08:37:07Z</time>
      </trkpt>
      <trkpt lat="44.49574" lon="5.00144">
        <ele>605.66</ele>
        <time>2021-06-10T08:37:31Z</time>
      </trkpt>
      <trkpt lat="44.49561" lon="5.00139">
        <ele>608.7</ele>
        <time>2021-06-10T08:37:56Z</time>
      </trkpt>
      <trkpt lat="44.49547" lon="5.00131">
        <ele>610.08</ele>
        <time>2021-06-10T08:38:22Z</time>
      </trkpt>
      <trkpt lat="44.49529" lon="5.0012">
        <ele>613.14</ele>
        <time>2021-06-10T08:38:51Z</time>
      </trkpt>
      <trkpt lat="44.49514" lon="5.00106">
        <ele>616.18</ele>
        <time>2021-06-10T08:39:14Z</time>
      </trkpt>
      <trkpt lat="44.49497" lon="5.00097">
        <ele>619.15</ele>
        <time>2021-06-10T08:39:40Z</time>
      </trkpt>
      <trkpt lat="44.49478" lon="5.00094">
        <ele>622.19</ele>
        <time>2021-06-10T08:40:09Z</time>
      </trkpt>
      <trkpt lat="44.49462" lon="5.00093">
        <ele>625.2</ele>
        <time>2021-06-10T08:40:34Z</time>
      </trkpt>
      <trkpt lat="44.49447" lon="5.00088">
        <ele>628.1</ele>
        <time>2021-06-10T08:41:04Z</time>
      </trkpt>
      <trkpt lat="44.49434" lon="5.00085">
        <ele>631.22</ele>
        <time>2021-06-10T08:41:29Z</time>
      </trkpt>
      <trkpt lat="44.49427" lon="5.00076">
        <ele>634.34</ele>
        <time>2021-06-10T08:41:47Z</time>
      </trkpt>
      <trkpt lat="44.4942" lon="5.00067">
        <ele>637.49</ele>
        <time>2021-06-10T08:42:09Z</time>
      </trkpt>
      <trkpt lat="44.49409" lon="5.00067">
        <ele>640.64</ele>
        <time>2021-06-10T08:42:31Z</time>
      </trkpt>
      <trkpt lat="44.49398" lon="5.00066">
        <ele>643.72</ele>
        <time>2021-06-10T08:42:54Z</time>
      </trkpt>
      <trkpt lat="44.49386" lon="5.00064">
        <ele>646.8</ele>
        <time>2021-06-10T08:43:19Z</time>
      </trkpt>
      <trkpt lat="44.49376" lon="5.00063">
        <ele>649.94</ele>
        <time>2021-06-10T08:43:43Z</time>
      </trkpt>
      <trkpt lat="44.4937" lon="5.00062">
        <ele>650.11</ele>
        <time>2021-06-10T08:44:40Z</time>
      </trkpt>
      <trkpt lat="44.4937" lon="5.00063">
        <ele>650.78</ele>
        <time>2021-06-10T08:45:43Z</time>
      </trkpt>
      <trkpt lat="44.49374" lon="5.00066">
        <ele>651.65</ele>
        <time>2021-06-10T08:46:58Z</time>
      </trkpt>
      <trkpt lat="44.49376" lon="5.00065">
        <ele>651.85</ele>
        <time>2021-06-10T08:47:57Z</time>
      </trkpt>
      <trkpt lat="44.49375" lon="5.00068">
        <ele>652.44</ele>
        <time>2021-06-10T08:48:50Z</time>
      </trkpt>
      <trkpt lat="44.49373" lon="5.00064">
        <ele>652.67</ele>
        <time>2021-06-10T08:50:01Z</time>
      </trkpt>
      <trkpt lat="44.49371" lon="5.00065">
        <ele>653.96</ele>
        <time>2021-06-10T08:51:20Z</time>
      </trkpt>
      <trkpt lat="44.49375" lon="5.00062">
        <ele>654.42</ele>
        <time>2021-06-10T08:52:12Z</time>
      </trkpt>
      <trkpt lat="44.49382" lon="5.00051">
        <ele>657.44</ele>
        <time>2021-06-10T08:52:33Z</time>
      </trkpt>
      <trkpt lat="44.49387" lon="5.00038">
        <ele>660.5</ele>
        <time>2021-06-10T08:52:54Z</time>
      </trkpt>
      <trkpt lat="44.49385" lon="5.00024">
        <ele>663.51</ele>
        <time>2021-06-10T08:53:15Z</time>
      </trkpt>
      <trkpt lat="44.49383" lon="5.00008">
        <ele>666.52</ele>
        <time>2021-06-10T08:53:39Z</time>
      </trkpt>
      <trkpt lat="44.49374" lon="4.99993">
        <ele>669.55</ele>
        <time>2021-06-10T08:54:04Z</time>
      </trkpt>
      <trkpt lat="44.49376" lon="4.99984">
        <ele>670.58</ele>
        <time>2021-06-10T08:54:33Z</time>
      </trkpt>
      <trkpt lat="44.4939" lon="4.9998">
        <ele>673</ele>
        <time>2021-06-10T08:54:57Z</time>
      </trkpt>
      <trkpt lat="44.49402" lon="4.99974">
        <ele>676.03</ele>
        <time>2021-06-10T08:55:18Z</time>
      </trkpt>
      <trkpt lat="44.49411" lon="4.99962">
        <ele>679.17</ele>
        <time>2021-06-10T08:55:37Z</time>
      </trkpt>
      <trkpt lat="44.49417" lon="4.99948">
        <ele>682.28</ele>
        <time>2021-06-10T08:55:56Z</time>
      </trkpt>
      <trkpt lat="44.49423" lon="4.99937">
        <ele>685.48</ele>
        <time>2021-06-10T08:56:13Z</time>
      </trkpt>
      <trkpt lat="44.49426" lon="4.99923">
        <ele>688.65</ele>
        <time>2021-06-10T08:56:33Z</time>
      </trkpt>
      <trkpt lat="44.4943" lon="4.99909">
        <ele>691.71</ele>
        <time>2021-06-10T08:56:55Z</time>
      </trkpt>
      <trkpt lat="44.49433" lon="4.99895">
        <ele>694.77</ele>
        <time>2021-06-10T08:57:14Z</time>
      </trkpt>
      <trkpt lat="44.49437" lon="4.99883">
        <ele>697.82</ele>
        <time>2021-06-10T08:57:36Z</time>
      </trkpt>
      <trkpt lat="44.49439" lon="4.99876">
        <ele>700.02</ele>
        <time>2021-06-10T08:57:52Z</time>
      </trkpt>
      <trkpt lat="44.49441" lon="4.99866">
        <ele>703.21</ele>
        <time>2021-06-10T08:58:11Z</time>
      </trkpt>
      <trkpt lat="44.49442" lon="4.99865">
        <ele>703.79</ele>
        <time>2021-06-10T08:58:14Z</time>
      </trkpt>
      <trkpt lat="44.49453" lon="4.99873">
        <ele>706.93</ele>
        <time>2021-06-10T08:58:39Z</time>
      </trkpt>
      <trkpt lat="44.49463" lon="4.99876">
        <ele>710.1</ele>
        <time>2021-06-10T08:59:00Z</time>
      </trkpt>
      <trkpt lat="44.49471" lon="4.99877">
        <ele>713.23</ele>
        <time>2021-06-10T08:59:18Z</time>
      </trkpt>
      <trkpt lat="44.49479" lon="4.99878">
        <ele>716.28</ele>
        <time>2021-06-10T08:59:40Z</time>
      </trkpt>
      <trkpt lat="44.49482" lon="4.99867">
        <ele>719.33</ele>
        <time>2021-06-10T08:59:59Z</time>
      </trkpt>
      <trkpt lat="44.49482" lon="4.9986">
        <ele>720.82</ele>
        <time>2021-06-10T09:00:15Z</time>
      </trkpt>
      <trkpt lat="44.49487" lon="4.99854">
        <ele>723.94</ele>
        <time>2021-06-10T09:00:38Z</time>
      </trkpt>
      <trkpt lat="44.49493" lon="4.99845">
        <ele>727.06</ele>
        <time>2021-06-10T09:01:01Z</time>
      </trkpt>
      <trkpt lat="44.49495" lon="4.99842">
        <ele>730.29</ele>
        <time>2021-06-10T09:01:24Z</time>
      </trkpt>
      <trkpt lat="44.49489" lon="4.99828">
        <ele>733.14</ele>
        <time>2021-06-10T09:01:58Z</time>
      </trkpt>
      <trkpt lat="44.49492" lon="4.99813">
        <ele>735.14</ele>
        <time>2021-06-10T09:02:30Z</time>
      </trkpt>
      <trkpt lat="44.49498" lon="4.9981">
        <ele>738.17</ele>
        <time>2021-06-10T09:02:56Z</time>
      </trkpt>
      <trkpt lat="44.49496" lon="4.99815">
        <ele>739.9</ele>
        <time>2021-06-10T09:04:13Z</time>
      </trkpt>
      <trkpt lat="44.49497" lon="4.99815">
        <ele>740.17</ele>
        <time>2021-06-10T09:05:31Z</time>
      </trkpt>
      <trkpt lat="44.49496" lon="4.99816">
        <ele>741.83</ele>
        <time>2021-06-10T09:06:39Z</time>
      </trkpt>
      <trkpt lat="44.49501" lon="4.99818">
        <ele>741.1</ele>
        <time>2021-06-10T09:07:28Z</time>
      </trkpt>
      <trkpt lat="44.49511" lon="4.99825">
        <ele>744.39</ele>
        <time>2021-06-10T09:07:48Z</time>
      </trkpt>
      <trkpt lat="44.4952" lon="4.99828">
        <ele>747.46</ele>
        <time>2021-06-10T09:08:05Z</time>
      </trkpt>
      <trkpt lat="44.49529" lon="4.9983">
        <ele>750.46</ele>
        <time>2021-06-10T09:08:24Z</time>
      </trkpt>
      <trkpt lat="44.49536" lon="4.9983">
        <ele>753.58</ele>
        <time>2021-06-10T09:08:43Z</time>
      </trkpt>
      <trkpt lat="44.49547" lon="4.99835">
        <ele>756.69</ele>
        <time>2021-06-10T09:09:03Z</time>
      </trkpt>
      <trkpt lat="44.49556" lon="4.99839">
        <ele>759.86</ele>
        <time>2021-06-10T09:09:22Z</time>
      </trkpt>
      <trkpt lat="44.49568" lon="4.99835">
        <ele>762.42</ele>
        <time>2021-06-10T09:09:41Z</time>
      </trkpt>
      <trkpt lat="44.49582" lon="4.99834">
        <ele>763.53</ele>
        <time>2021-06-10T09:10:02Z</time>
      </trkpt>
      <trkpt lat="44.49596" lon="4.99833">
        <ele>764.92</ele>
        <time>2021-06-10T09:10:23Z</time>
      </trkpt>
      <trkpt lat="44.49609" lon="4.99832">
        <ele>765.35</ele>
        <time>2021-06-10T09:10:43Z</time>
      </trkpt>
      <trkpt lat="44.49613" lon="4.99832">
        <ele>765.52</ele>
        <time>2021-06-10T09:11:08Z</time>
      </trkpt>
      <trkpt lat="44.49613" lon="4.99834">
        <ele>764.87</ele>
        <time>2021-06-10T09:11:46Z</time>
      </trkpt>
      <trkpt lat="44.49611" lon="4.99833">
        <ele>764.59</ele>
        <time>2021-06-10T09:12:28Z</time>
      </trkpt>
      <trkpt lat="44.4961" lon="4.9983">
        <ele>765.12</ele>
        <time>2021-06-10T09:13:22Z</time>
      </trkpt>
      <trkpt lat="44.49612" lon="4.9983">
        <ele>765.8</ele>
        <time>2021-06-10T09:14:15Z</time>
      </trkpt>
      <trkpt lat="44.49617" lon="4.99829">
        <ele>766.43</ele>
        <time>2021-06-10T09:15:00Z</time>
      </trkpt>
      <trkpt lat="44.49626" lon="4.99832">
        <ele>766.16</ele>
        <time>2021-06-10T09:15:15Z</time>
      </trkpt>
      <trkpt lat="44.49635" lon="4.99826">
        <ele>765.67</ele>
        <time>2021-06-10T09:15:31Z</time>
      </trkpt>
      <trkpt lat="44.49647" lon="4.99823">
        <ele>764.44</ele>
        <time>2021-06-10T09:15:49Z</time>
      </trkpt>
      <trkpt lat="44.49658" lon="4.99818">
        <ele>763.27</ele>
        <time>2021-06-10T09:16:04Z</time>
      </trkpt>
      <trkpt lat="44.49673" lon="4.99818">
        <ele>763.34</ele>
        <time>2021-06-10T09:16:22Z</time>
      </trkpt>
      <trkpt lat="44.49684" lon="4.99818">
        <ele>764.53</ele>
        <time>2021-06-10T09:16:35Z</time>
      </trkpt>
      <trkpt lat="44.49699" lon="4.9982">
        <ele>766.8</ele>
        <time>2021-06-10T09:16:58Z</time>
      </trkpt>
      <trkpt lat="44.49708" lon="4.9982">
        <ele>768.97</ele>
        <time>2021-06-10T09:17:12Z</time>
      </trkpt>
      <trkpt lat="44.49718" lon="4.9982">
        <ele>771.18</ele>
        <time>2021-06-10T09:17:31Z</time>
      </trkpt>
      <trkpt lat="44.49726" lon="4.99822">
        <ele>773.49</ele>
        <time>2021-06-10T09:17:49Z</time>
      </trkpt>
      <trkpt lat="44.49734" lon="4.99823">
        <ele>776.34</ele>
        <time>2021-06-10T09:18:08Z</time>
      </trkpt>
      <trkpt lat="44.49738" lon="4.99825">
        <ele>778.39</ele>
        <time>2021-06-10T09:18:28Z</time>
      </trkpt>
      <trkpt lat="44.4974" lon="4.99827">
        <ele>779.49</ele>
        <time>2021-06-10T09:18:57Z</time>
      </trkpt>
      <trkpt lat="44.49741" lon="4.99827">
        <ele>779.9</ele>
        <time>2021-06-10T09:19:46Z</time>
      </trkpt>
      <trkpt lat="44.49747" lon="4.99821">
        <ele>780.27</ele>
        <time>2021-06-10T09:20:04Z</time>
      </trkpt>
      <trkpt lat="44.49759" lon="4.99815">
        <ele>782.04</ele>
        <time>2021-06-10T09:20:22Z</time>
      </trkpt>
      <trkpt lat="44.49773" lon="4.99813">
        <ele>784.86</ele>
        <time>2021-06-10T09:20:42Z</time>
      </trkpt>
      <trkpt lat="44.49785" lon="4.99813">
        <ele>787.36</ele>
        <time>2021-06-10T09:21:01Z</time>
      </trkpt>
      <trkpt lat="44.49793" lon="4.9981">
        <ele>790.37</ele>
        <time>2021-06-10T09:21:19Z</time>
      </trkpt>
      <trkpt lat="44.49805" lon="4.99807">
        <ele>792.62</ele>
        <time>2021-06-10T09:21:39Z</time>
      </trkpt>
      <trkpt lat="44.49817" lon="4.99801">
        <ele>795.73</ele>
        <time>2021-06-10T09:22:01Z</time>
      </trkpt>
      <trkpt lat="44.49831" lon="4.99801">
        <ele>798.83</ele>
        <time>2021-06-10T09:22:23Z</time>
      </trkpt>
      <trkpt lat="44.49842" lon="4.99801">
        <ele>801.84</ele>
        <time>2021-06-10T09:22:42Z</time>
      </trkpt>
      <trkpt lat="44.49854" lon="4.99798">
        <ele>804.86</ele>
        <time>2021-06-10T09:23:05Z</time>
      </trkpt>
      <trkpt lat="44.4986" lon="4.99797">
        <ele>807.03</ele>
        <time>2021-06-10T09:23:35Z</time>
      </trkpt>
      <trkpt lat="44.49869" lon="4.99797">
        <ele>810.04</ele>
        <time>2021-06-10T09:24:02Z</time>
      </trkpt>
      <trkpt lat="44.49883" lon="4.99798">
        <ele>813.09</ele>
        <time>2021-06-10T09:24:23Z</time>
      </trkpt>
      <trkpt lat="44.49894" lon="4.99797">
        <ele>816.25</ele>
        <time>2021-06-10T09:24:40Z</time>
      </trkpt>
      <trkpt lat="44.49898" lon="4.99794">
        <ele>817.16</ele>
        <time>2021-06-10T09:25:00Z</time>
      </trkpt>
      <trkpt lat="44.49905" lon="4.99796">
        <ele>818.04</ele>
        <time>2021-06-10T09:25:19Z</time>
      </trkpt>
      <trkpt lat="44.49911" lon="4.99799">
        <ele>819.92</ele>
        <time>2021-06-10T09:25:39Z</time>
      </trkpt>
      <trkpt lat="44.49923" lon="4.99805">
        <ele>820.54</ele>
        <time>2021-06-10T09:25:56Z</time>
      </trkpt>
      <trkpt lat="44.49924" lon="4.99806">
        <ele>820.56</ele>
        <time>2021-06-10T09:25:57Z</time>
      </trkpt>
      <trkpt lat="44.49936" lon="4.99814">
        <ele>821.53</ele>
        <time>2021-06-10T09:26:14Z</time>
      </trkpt>
      <trkpt lat="44.49949" lon="4.9982">
        <ele>822.15</ele>
        <time>2021-06-10T09:26:31Z</time>
      </trkpt>
      <trkpt lat="44.49963" lon="4.9982">
        <ele>823.36</ele>
        <time>2021-06-10T09:26:52Z</time>
      </trkpt>
      <trkpt lat="44.49972" lon="4.99823">
        <ele>824.55</ele>
        <time>2021-06-10T09:27:14Z</time>
      </trkpt>
      <trkpt lat="44.49973" lon="4.99825">
        <ele>825.65</ele>
        <time>2021-06-10T09:27:36Z</time>
      </trkpt>
      <trkpt lat="44.49972" lon="4.99823">
        <ele>826.31</ele>
        <time>2021-06-10T09:28:57Z</time>
      </trkpt>
      <trkpt lat="44.49977" lon="4.99827">
        <ele>826.51</ele>
        <time>2021-06-10T09:29:23Z</time>
      </trkpt>
      <trkpt lat="44.49985" lon="4.99832">
        <ele>829.54</ele>
        <time>2021-06-10T09:29:40Z</time>
      </trkpt>
      <trkpt lat="44.49993" lon="4.99837">
        <ele>832.15</ele>
        <time>2021-06-10T09:30:00Z</time>
      </trkpt>
      <trkpt lat="44.50002" lon="4.99842">
        <ele>835.23</ele>
        <time>2021-06-10T09:30:19Z</time>
      </trkpt>
      <trkpt lat="44.5001" lon="4.99847">
        <ele>837.83</ele>
        <time>2021-06-10T09:30:37Z</time>
      </trkpt>
      <trkpt lat="44.50019" lon="4.99852">
        <ele>839.35</ele>
        <time>2021-06-10T09:30:58Z</time>
      </trkpt>
      <trkpt lat="44.50019" lon="4.99853">
        <ele>841.81</ele>
        <time>2021-06-10T09:31:26Z</time>
      </trkpt>
      <trkpt lat="44.5002" lon="4.99854">
        <ele>842</ele>
        <time>2021-06-10T09:32:22Z</time>
      </trkpt>
      <trkpt lat="44.50024" lon="4.99855">
        <ele>843.1</ele>
        <time>2021-06-10T09:32:44Z</time>
      </trkpt>
      <trkpt lat="44.50028" lon="4.99854">
        <ele>843.41</ele>
        <time>2021-06-10T09:33:07Z</time>
      </trkpt>
      <trkpt lat="44.50037" lon="4.99857">
        <ele>846.42</ele>
        <time>2021-06-10T09:33:28Z</time>
      </trkpt>
      <trkpt lat="44.50038" lon="4.99864">
        <ele>848.93</ele>
        <time>2021-06-10T09:33:51Z</time>
      </trkpt>
      <trkpt lat="44.50042" lon="4.99873">
        <ele>852.12</ele>
        <time>2021-06-10T09:34:09Z</time>
      </trkpt>
      <trkpt lat="44.50045" lon="4.99875">
        <ele>853.42</ele>
        <time>2021-06-10T09:34:44Z</time>
      </trkpt>
      <trkpt lat="44.50043" lon="4.99876">
        <ele>854.17</ele>
        <time>2021-06-10T09:35:15Z</time>
      </trkpt>
      <trkpt lat="44.50043" lon="4.99875">
        <ele>853.89</ele>
        <time>2021-06-10T09:36:06Z</time>
      </trkpt>
      <trkpt lat="44.50048" lon="4.99876">
        <ele>854.35</ele>
        <time>2021-06-10T09:36:31Z</time>
      </trkpt>
      <trkpt lat="44.50064" lon="4.99883">
        <ele>855.03</ele>
        <time>2021-06-10T09:36:51Z</time>
      </trkpt>
      <trkpt lat="44.50075" lon="4.99897">
        <ele>857.86</ele>
        <time>2021-06-10T09:37:12Z</time>
      </trkpt>
      <trkpt lat="44.50084" lon="4.99909">
        <ele>860.98</ele>
        <time>2021-06-10T09:37:30Z</time>
      </trkpt>
      <trkpt lat="44.50095" lon="4.99923">
        <ele>863.63</ele>
        <time>2021-06-10T09:37:51Z</time>
      </trkpt>
      <trkpt lat="44.50099" lon="4.99933">
        <ele>865.56</ele>
        <time>2021-06-10T09:38:08Z</time>
      </trkpt>
      <trkpt lat="44.50105" lon="4.99944">
        <ele>868.67</ele>
        <time>2021-06-10T09:38:26Z</time>
      </trkpt>
      <trkpt lat="44.50111" lon="4.99954">
        <ele>871.76</ele>
        <time>2021-06-10T09:38:45Z</time>
      </trkpt>
      <trkpt lat="44.50115" lon="4.99961">
        <ele>874.5</ele>
        <time>2021-06-10T09:39:07Z</time>
      </trkpt>
      <trkpt lat="44.50119" lon="4.99965">
        <ele>875.05</ele>
        <time>2021-06-10T09:39:49Z</time>
      </trkpt>
      <trkpt lat="44.50124" lon="4.99972">
        <ele>876.21</ele>
        <time>2021-06-10T09:40:15Z</time>
      </trkpt>
      <trkpt lat="44.50132" lon="4.99979">
        <ele>877.24</ele>
        <time>2021-06-10T09:40:47Z</time>
      </trkpt>
      <trkpt lat="44.50139" lon="4.99987">
        <ele>879.57</ele>
        <time>2021-06-10T09:41:06Z</time>
      </trkpt>
      <trkpt lat="44.50142" lon="4.99994">
        <ele>881.24</ele>
        <time>2021-06-10T09:41:36Z</time>
      </trkpt>
      <trkpt lat="44.50148" lon="5.00004">
        <ele>884.31</ele>
        <time>2021-06-10T09:41:51Z</time>
      </trkpt>
      <trkpt lat="44.50154" lon="5.00018">
        <ele>886.98</ele>
        <time>2021-06-10T09:42:10Z</time>
      </trkpt>
      <trkpt lat="44.50158" lon="5.00024">
        <ele>888.98</ele>
        <time>2021-06-10T09:42:24Z</time>
      </trkpt>
      <trkpt lat="44.50159" lon="5.00024">
        <ele>889.94</ele>
        <time>2021-06-10T09:42:52Z</time>
      </trkpt>
      <trkpt lat="44.50164" lon="5.00035">
        <ele>890.81</ele>
        <time>2021-06-10T09:43:23Z</time>
      </trkpt>
      <trkpt lat="44.50166" lon="5.00037">
        <ele>892.49</ele>
        <time>2021-06-10T09:43:40Z</time>
      </trkpt>
      <trkpt lat="44.50174" lon="5.00045">
        <ele>892.25</ele>
        <time>2021-06-10T09:44:00Z</time>
      </trkpt>
      <trkpt lat="44.50178" lon="5.00042">
        <ele>891.92</ele>
        <time>2021-06-10T09:44:29Z</time>
      </trkpt>
      <trkpt lat="44.50176" lon="5.00046">
        <ele>891.45</ele>
        <time>2021-06-10T09:45:02Z</time>
      </trkpt>
      <trkpt lat="44.50176" lon="5.00047">
        <ele>891.51</ele>
        <time>2021-06-10T09:45:03Z</time>
      </trkpt>
      <trkpt lat="44.50179" lon="5.00069">
        <ele>891.77</ele>
        <time>2021-06-10T09:45:24Z</time>
      </trkpt>
      <trkpt lat="44.50184" lon="5.00092">
        <ele>891.17</ele>
        <time>2021-06-10T09:45:45Z</time>
      </trkpt>
      <trkpt lat="44.50187" lon="5.00113">
        <ele>891.15</ele>
        <time>2021-06-10T09:46:09Z</time>
      </trkpt>
      <trkpt lat="44.50191" lon="5.00136">
        <ele>890.81</ele>
        <time>2021-06-10T09:46:29Z</time>
      </trkpt>
      <trkpt lat="44.50191" lon="5.00155">
        <ele>890.42</ele>
        <time>2021-06-10T09:46:49Z</time>
      </trkpt>
      <trkpt lat="44.50193" lon="5.00167">
        <ele>888.86</ele>
        <time>2021-06-10T09:47:07Z</time>
      </trkpt>
      <trkpt lat="44.50192" lon="5.00173">
        <ele>887.68</ele>
        <time>2021-06-10T09:47:37Z</time>
      </trkpt>
      <trkpt lat="44.50192" lon="5.00182">
        <ele>886.79</ele>
        <time>2021-06-10T09:48:11Z</time>
      </trkpt>
      <trkpt lat="44.50193" lon="5.00197">
        <ele>884.59</ele>
        <time>2021-06-10T09:48:27Z</time>
      </trkpt>
      <trkpt lat="44.5019" lon="5.00212">
        <ele>881.36</ele>
        <time>2021-06-10T09:48:45Z</time>
      </trkpt>
      <trkpt lat="44.50187" lon="5.00226">
        <ele>878.25</ele>
        <time>2021-06-10T09:49:01Z</time>
      </trkpt>
      <trkpt lat="44.50185" lon="5.00243">
        <ele>875.63</ele>
        <time>2021-06-10T09:49:19Z</time>
      </trkpt>
      <trkpt lat="44.50177" lon="5.00259">
        <ele>872.52</ele>
        <time>2021-06-10T09:49:39Z</time>
      </trkpt>
      <trkpt lat="44.50172" lon="5.00273">
        <ele>870.45</ele>
        <time>2021-06-10T09:49:57Z</time>
      </trkpt>
      <trkpt lat="44.50167" lon="5.00288">
        <ele>868.29</ele>
        <time>2021-06-10T09:50:15Z</time>
      </trkpt>
      <trkpt lat="44.50164" lon="5.00303">
        <ele>865.28</ele>
        <time>2021-06-10T09:50:35Z</time>
      </trkpt>
      <trkpt lat="44.50161" lon="5.00318">
        <ele>862.96</ele>
        <time>2021-06-10T09:50:55Z</time>
      </trkpt>
      <trkpt lat="44.50156" lon="5.00335">
        <ele>861.2</ele>
        <time>2021-06-10T09:51:15Z</time>
      </trkpt>
      <trkpt lat="44.5015" lon="5.00362">
        <ele>858.37</ele>
        <time>2021-06-10T09:51:39Z</time>
      </trkpt>
      <trkpt lat="44.50149" lon="5.00373">
        <ele>857.82</ele>
        <time>2021-06-10T09:51:49Z</time>
      </trkpt>
      <trkpt lat="44.50148" lon="5.00384">
        <ele>856.66</ele>
        <time>2021-06-10T09:51:59Z</time>
      </trkpt>
      <trkpt lat="44.50144" lon="5.00413">
        <ele>855.28</ele>
        <time>2021-06-10T09:52:18Z</time>
      </trkpt>
      <trkpt lat="44.50139" lon="5.00441">
        <ele>854.43</ele>
        <time>2021-06-10T09:52:39Z</time>
      </trkpt>
      <trkpt lat="44.50135" lon="5.00468">
        <ele>853.38</ele>
        <time>2021-06-10T09:52:59Z</time>
      </trkpt>
      <trkpt lat="44.50132" lon="5.0049">
        <ele>853.69</ele>
        <time>2021-06-10T09:53:17Z</time>
      </trkpt>
      <trkpt lat="44.50124" lon="5.00516">
        <ele>854.56</ele>
        <time>2021-06-10T09:53:39Z</time>
      </trkpt>
      <trkpt lat="44.50114" lon="5.00538">
        <ele>854.08</ele>
        <time>2021-06-10T09:54:00Z</time>
      </trkpt>
      <trkpt lat="44.50114" lon="5.00544">
        <ele>852.8</ele>
        <time>2021-06-10T09:54:09Z</time>
      </trkpt>
      <trkpt lat="44.50112" lon="5.00554">
        <ele>852.14</ele>
        <time>2021-06-10T09:54:17Z</time>
      </trkpt>
      <trkpt lat="44.50111" lon="5.00564">
        <ele>851.36</ele>
        <time>2021-06-10T09:54:28Z</time>
      </trkpt>
      <trkpt lat="44.50108" lon="5.00581">
        <ele>848.97</ele>
        <time>2021-06-10T09:54:49Z</time>
      </trkpt>
      <trkpt lat="44.50104" lon="5.00603">
        <ele>846.85</ele>
        <time>2021-06-10T09:55:07Z</time>
      </trkpt>
      <trkpt lat="44.501" lon="5.00631">
        <ele>844.72</ele>
        <time>2021-06-10T09:55:29Z</time>
      </trkpt>
      <trkpt lat="44.501" lon="5.00634">
        <ele>844.35</ele>
        <time>2021-06-10T09:55:32Z</time>
      </trkpt>
      <trkpt lat="44.50102" lon="5.00644">
        <ele>843</ele>
        <time>2021-06-10T09:55:40Z</time>
      </trkpt>
      <trkpt lat="44.50102" lon="5.00653">
        <ele>842.28</ele>
        <time>2021-06-10T09:55:44Z</time>
      </trkpt>
      <trkpt lat="44.50101" lon="5.00655">
        <ele>842.16</ele>
        <time>2021-06-10T09:55:45Z</time>
      </trkpt>
      <trkpt lat="44.50103" lon="5.00658">
        <ele>840.83</ele>
        <time>2021-06-10T09:55:52Z</time>
      </trkpt>
      <trkpt lat="44.50104" lon="5.00661">
        <ele>840.63</ele>
        <time>2021-06-10T09:55:54Z</time>
      </trkpt>
      <trkpt lat="44.50105" lon="5.00663">
        <ele>840.37</ele>
        <time>2021-06-10T09:55:55Z</time>
      </trkpt>
      <trkpt lat="44.50105" lon="5.00665">
        <ele>840.2</ele>
        <time>2021-06-10T09:55:56Z</time>
      </trkpt>
      <trkpt lat="44.50106" lon="5.00668">
        <ele>839.45</ele>
        <time>2021-06-10T09:56:00Z</time>
      </trkpt>
      <trkpt lat="44.50107" lon="5.0067">
        <ele>839.22</ele>
        <time>2021-06-10T09:56:01Z</time>
      </trkpt>
      <trkpt lat="44.50107" lon="5.00672">
        <ele>838.88</ele>
        <time>2021-06-10T09:56:02Z</time>
      </trkpt>
      <trkpt lat="44.50108" lon="5.00674">
        <ele>838.88</ele>
        <time>2021-06-10T09:56:03Z</time>
      </trkpt>
      <trkpt lat="44.50108" lon="5.00676">
        <ele>838.49</ele>
        <time>2021-06-10T09:56:04Z</time>
      </trkpt>
      <trkpt lat="44.50109" lon="5.00681">
        <ele>836.98</ele>
        <time>2021-06-10T09:56:12Z</time>
      </trkpt>
      <trkpt lat="44.50114" lon="5.00693">
        <ele>833.68</ele>
        <time>2021-06-10T09:56:27Z</time>
      </trkpt>
      <trkpt lat="44.50119" lon="5.00707">
        <ele>830.59</ele>
        <time>2021-06-10T09:56:43Z</time>
      </trkpt>
      <trkpt lat="44.50123" lon="5.00724">
        <ele>827.54</ele>
        <time>2021-06-10T09:57:00Z</time>
      </trkpt>
      <trkpt lat="44.50128" lon="5.0075">
        <ele>824.73</ele>
        <time>2021-06-10T09:57:21Z</time>
      </trkpt>
      <trkpt lat="44.50131" lon="5.00769">
        <ele>823.37</ele>
        <time>2021-06-10T09:57:37Z</time>
      </trkpt>
      <trkpt lat="44.50136" lon="5.00792">
        <ele>821.6</ele>
        <time>2021-06-10T09:57:54Z</time>
      </trkpt>
      <trkpt lat="44.50136" lon="5.0082">
        <ele>821.06</ele>
        <time>2021-06-10T09:58:13Z</time>
      </trkpt>
      <trkpt lat="44.5014" lon="5.00842">
        <ele>821.71</ele>
        <time>2021-06-10T09:58:29Z</time>
      </trkpt>
      <trkpt lat="44.50142" lon="5.00845">
        <ele>821.74</ele>
        <time>2021-06-10T09:58:31Z</time>
      </trkpt>
      <trkpt lat="44.50154" lon="5.00874">
        <ele>820.29</ele>
        <time>2021-06-10T09:58:54Z</time>
      </trkpt>
      <trkpt lat="44.50165" lon="5.00898">
        <ele>818.86</ele>
        <time>2021-06-10T09:59:15Z</time>
      </trkpt>
      <trkpt lat="44.50176" lon="5.00922">
        <ele>817.28</ele>
        <time>2021-06-10T09:59:36Z</time>
      </trkpt>
      <trkpt lat="44.50192" lon="5.00947">
        <ele>814.95</ele>
        <time>2021-06-10T09:59:59Z</time>
      </trkpt>
      <trkpt lat="44.50211" lon="5.00958">
        <ele>812.99</ele>
        <time>2021-06-10T10:00:19Z</time>
      </trkpt>
      <trkpt lat="44.50225" lon="5.00968">
        <ele>812.67</ele>
        <time>2021-06-10T10:00:36Z</time>
      </trkpt>
      <trkpt lat="44.50237" lon="5.00978">
        <ele>812.62</ele>
        <time>2021-06-10T10:00:51Z</time>
      </trkpt>
      <trkpt lat="44.50251" lon="5.00993">
        <ele>811.98</ele>
        <time>2021-06-10T10:01:12Z</time>
      </trkpt>
      <trkpt lat="44.50249" lon="5.00991">
        <ele>811.54</ele>
        <time>2021-06-10T10:01:52Z</time>
      </trkpt>
      <trkpt lat="44.50245" lon="5.00999">
        <ele>811.38</ele>
        <time>2021-06-10T10:02:19Z</time>
      </trkpt>
      <trkpt lat="44.50241" lon="5.01011">
        <ele>808.22</ele>
        <time>2021-06-10T10:02:35Z</time>
      </trkpt>
      <trkpt lat="44.50241" lon="5.01015">
        <ele>807.78</ele>
        <time>2021-06-10T10:02:37Z</time>
      </trkpt>
      <trkpt lat="44.50242" lon="5.01026">
        <ele>805.68</ele>
        <time>2021-06-10T10:02:47Z</time>
      </trkpt>
      <trkpt lat="44.50242" lon="5.01027">
        <ele>805.63</ele>
        <time>2021-06-10T10:02:48Z</time>
      </trkpt>
      <trkpt lat="44.50238" lon="5.01041">
        <ele>802.42</ele>
        <time>2021-06-10T10:03:01Z</time>
      </trkpt>
      <trkpt lat="44.5024" lon="5.0106">
        <ele>799.27</ele>
        <time>2021-06-10T10:03:18Z</time>
      </trkpt>
      <trkpt lat="44.50245" lon="5.01074">
        <ele>797.75</ele>
        <time>2021-06-10T10:03:32Z</time>
      </trkpt>
      <trkpt lat="44.50248" lon="5.01095">
        <ele>795.02</ele>
        <time>2021-06-10T10:03:50Z</time>
      </trkpt>
      <trkpt lat="44.50254" lon="5.0111">
        <ele>791.71</ele>
        <time>2021-06-10T10:04:04Z</time>
      </trkpt>
      <trkpt lat="44.5026" lon="5.01126">
        <ele>788.57</ele>
        <time>2021-06-10T10:04:19Z</time>
      </trkpt>
      <trkpt lat="44.50269" lon="5.01143">
        <ele>785.45</ele>
        <time>2021-06-10T10:04:36Z</time>
      </trkpt>
      <trkpt lat="44.50277" lon="5.0116">
        <ele>782.36</ele>
        <time>2021-06-10T10:04:54Z</time>
      </trkpt>
      <trkpt lat="44.50282" lon="5.01173">
        <ele>779.36</ele>
        <time>2021-06-10T10:05:08Z</time>
      </trkpt>
      <trkpt lat="44.50288" lon="5.01185">
        <ele>776.28</ele>
        <time>2021-06-10T10:05:20Z</time>
      </trkpt>
      <trkpt lat="44.50294" lon="5.01196">
        <ele>772.93</ele>
        <time>2021-06-10T10:05:33Z</time>
      </trkpt>
      <trkpt lat="44.5029" lon="5.01208">
        <ele>769.81</ele>
        <time>2021-06-10T10:05:48Z</time>
      </trkpt>
      <trkpt lat="44.50285" lon="5.01218">
        <ele>766.56</ele>
        <time>2021-06-10T10:06:00Z</time>
      </trkpt>
      <trkpt lat="44.50282" lon="5.01227">
        <ele>763.43</ele>
        <time>2021-06-10T10:06:12Z</time>
      </trkpt>
      <trkpt lat="44.50286" lon="5.01236">
        <ele>760.32</ele>
        <time>2021-06-10T10:06:24Z</time>
      </trkpt>
      <trkpt lat="44.50286" lon="5.01246">
        <ele>757.19</ele>
        <time>2021-06-10T10:06:42Z</time>
      </trkpt>
      <trkpt lat="44.50282" lon="5.01246">
        <ele>754.4</ele>
        <time>2021-06-10T10:07:18Z</time>
      </trkpt>
      <trkpt lat="44.50277" lon="5.01252">
        <ele>753.29</ele>
        <time>2021-06-10T10:07:51Z</time>
      </trkpt>
      <trkpt lat="44.50267" lon="5.01263">
        <ele>751</ele>
        <time>2021-06-10T10:08:13Z</time>
      </trkpt>
      <trkpt lat="44.50267" lon="5.01274">
        <ele>747.99</ele>
        <time>2021-06-10T10:08:28Z</time>
      </trkpt>
      <trkpt lat="44.50271" lon="5.01287">
        <ele>744.86</ele>
        <time>2021-06-10T10:08:40Z</time>
      </trkpt>
      <trkpt lat="44.50277" lon="5.0131">
        <ele>741.79</ele>
        <time>2021-06-10T10:09:03Z</time>
      </trkpt>
      <trkpt lat="44.50278" lon="5.01321">
        <ele>738.45</ele>
        <time>2021-06-10T10:09:14Z</time>
      </trkpt>
      <trkpt lat="44.50274" lon="5.01338">
        <ele>735.12</ele>
        <time>2021-06-10T10:09:31Z</time>
      </trkpt>
      <trkpt lat="44.50273" lon="5.01351">
        <ele>731.93</ele>
        <time>2021-06-10T10:09:45Z</time>
      </trkpt>
      <trkpt lat="44.50269" lon="5.01366">
        <ele>728.75</ele>
        <time>2021-06-10T10:09:57Z</time>
      </trkpt>
      <trkpt lat="44.50261" lon="5.01384">
        <ele>726.16</ele>
        <time>2021-06-10T10:10:15Z</time>
      </trkpt>
      <trkpt lat="44.50252" lon="5.01396">
        <ele>723.14</ele>
        <time>2021-06-10T10:10:31Z</time>
      </trkpt>
      <trkpt lat="44.50238" lon="5.01409">
        <ele>720.91</ele>
        <time>2021-06-10T10:10:54Z</time>
      </trkpt>
      <trkpt lat="44.50228" lon="5.01419">
        <ele>720.42</ele>
        <time>2021-06-10T10:11:17Z</time>
      </trkpt>
      <trkpt lat="44.50234" lon="5.01418">
        <ele>720.18</ele>
        <time>2021-06-10T10:11:39Z</time>
      </trkpt>
      <trkpt lat="44.50237" lon="5.01416">
        <ele>719.7</ele>
        <time>2021-06-10T10:12:23Z</time>
      </trkpt>
      <trkpt lat="44.50233" lon="5.01423">
        <ele>719.69</ele>
        <time>2021-06-10T10:12:45Z</time>
      </trkpt>
      <trkpt lat="44.50236" lon="5.01443">
        <ele>717.3</ele>
        <time>2021-06-10T10:13:05Z</time>
      </trkpt>
      <trkpt lat="44.50239" lon="5.0147">
        <ele>714.29</ele>
        <time>2021-06-10T10:13:27Z</time>
      </trkpt>
      <trkpt lat="44.50235" lon="5.01497">
        <ele>713.39</ele>
        <time>2021-06-10T10:13:47Z</time>
      </trkpt>
      <trkpt lat="44.50236" lon="5.01525">
        <ele>714.29</ele>
        <time>2021-06-10T10:14:10Z</time>
      </trkpt>
      <trkpt lat="44.50239" lon="5.01543">
        <ele>713.26</ele>
        <time>2021-06-10T10:14:23Z</time>
      </trkpt>
      <trkpt lat="44.50241" lon="5.01548">
        <ele>713.21</ele>
        <time>2021-06-10T10:14:26Z</time>
      </trkpt>
      <trkpt lat="44.50247" lon="5.01563">
        <ele>712.43</ele>
        <time>2021-06-10T10:14:39Z</time>
      </trkpt>
      <trkpt lat="44.50258" lon="5.01577">
        <ele>712.23</ele>
        <time>2021-06-10T10:14:54Z</time>
      </trkpt>
      <trkpt lat="44.50276" lon="5.01603">
        <ele>712.84</ele>
        <time>2021-06-10T10:15:19Z</time>
      </trkpt>
      <trkpt lat="44.50298" lon="5.01629">
        <ele>714.42</ele>
        <time>2021-06-10T10:15:50Z</time>
      </trkpt>
      <trkpt lat="44.50314" lon="5.01649">
        <ele>717.43</ele>
        <time>2021-06-10T10:16:13Z</time>
      </trkpt>
      <trkpt lat="44.50322" lon="5.01665">
        <ele>718.24</ele>
        <time>2021-06-10T10:16:28Z</time>
      </trkpt>
      <trkpt lat="44.50332" lon="5.01684">
        <ele>719.09</ele>
        <time>2021-06-10T10:16:50Z</time>
      </trkpt>
      <trkpt lat="44.50343" lon="5.0171">
        <ele>721.86</ele>
        <time>2021-06-10T10:17:15Z</time>
      </trkpt>
      <trkpt lat="44.50359" lon="5.01744">
        <ele>722.76</ele>
        <time>2021-06-10T10:17:43Z</time>
      </trkpt>
      <trkpt lat="44.50366" lon="5.01761">
        <ele>723.87</ele>
        <time>2021-06-10T10:17:55Z</time>
      </trkpt>
      <trkpt lat="44.50374" lon="5.0179">
        <ele>725.87</ele>
        <time>2021-06-10T10:18:17Z</time>
      </trkpt>
      <trkpt lat="44.50385" lon="5.01809">
        <ele>725.85</ele>
        <time>2021-06-10T10:18:36Z</time>
      </trkpt>
      <trkpt lat="44.50393" lon="5.01839">
        <ele>725.92</ele>
        <time>2021-06-10T10:19:00Z</time>
      </trkpt>
      <trkpt lat="44.5039" lon="5.01861">
        <ele>726.92</ele>
        <time>2021-06-10T10:19:22Z</time>
      </trkpt>
      <trkpt lat="44.50381" lon="5.01886">
        <ele>729.38</ele>
        <time>2021-06-10T10:19:44Z</time>
      </trkpt>
      <trkpt lat="44.50374" lon="5.01908">
        <ele>731.26</ele>
        <time>2021-06-10T10:20:04Z</time>
      </trkpt>
      <trkpt lat="44.50373" lon="5.01911">
        <ele>731.42</ele>
        <time>2021-06-10T10:20:06Z</time>
      </trkpt>
      <trkpt lat="44.50366" lon="5.01944">
        <ele>734.22</ele>
        <time>2021-06-10T10:20:32Z</time>
      </trkpt>
      <trkpt lat="44.50363" lon="5.01978">
        <ele>735.92</ele>
        <time>2021-06-10T10:20:56Z</time>
      </trkpt>
      <trkpt lat="44.50369" lon="5.02004">
        <ele>738.92</ele>
        <time>2021-06-10T10:21:16Z</time>
      </trkpt>
      <trkpt lat="44.50378" lon="5.02034">
        <ele>740.29</ele>
        <time>2021-06-10T10:21:44Z</time>
      </trkpt>
      <trkpt lat="44.50394" lon="5.02065">
        <ele>742.82</ele>
        <time>2021-06-10T10:22:13Z</time>
      </trkpt>
      <trkpt lat="44.50409" lon="5.02089">
        <ele>745</ele>
        <time>2021-06-10T10:22:37Z</time>
      </trkpt>
      <trkpt lat="44.50419" lon="5.0211">
        <ele>747.33</ele>
        <time>2021-06-10T10:22:56Z</time>
      </trkpt>
      <trkpt lat="44.50422" lon="5.02118">
        <ele>749.14</ele>
        <time>2021-06-10T10:23:22Z</time>
      </trkpt>
      <trkpt lat="44.50426" lon="5.02112">
        <ele>748.76</ele>
        <time>2021-06-10T10:24:00Z</time>
      </trkpt>
      <trkpt lat="44.50421" lon="5.02109">
        <ele>748.36</ele>
        <time>2021-06-10T10:24:18Z</time>
      </trkpt>
      <trkpt lat="44.50422" lon="5.02108">
        <ele>747.27</ele>
        <time>2021-06-10T10:24:47Z</time>
      </trkpt>
      <trkpt lat="44.5042" lon="5.02113">
        <ele>747.64</ele>
        <time>2021-06-10T10:25:51Z</time>
      </trkpt>
      <trkpt lat="44.5042" lon="5.02112">
        <ele>748.01</ele>
        <time>2021-06-10T10:28:41Z</time>
      </trkpt>
      <trkpt lat="44.50422" lon="5.02109">
        <ele>748.21</ele>
        <time>2021-06-10T10:30:20Z</time>
      </trkpt>
      <trkpt lat="44.50417" lon="5.02114">
        <ele>748.56</ele>
        <time>2021-06-10T10:31:56Z</time>
      </trkpt>
      <trkpt lat="44.5042" lon="5.02113">
        <ele>748.76</ele>
        <time>2021-06-10T10:33:20Z</time>
      </trkpt>
      <trkpt lat="44.50421" lon="5.02112">
        <ele>749.2</ele>
        <time>2021-06-10T10:35:34Z</time>
      </trkpt>
      <trkpt lat="44.50422" lon="5.02113">
        <ele>749.27</ele>
        <time>2021-06-10T10:36:38Z</time>
      </trkpt>
      <trkpt lat="44.50421" lon="5.0211">
        <ele>748.88</ele>
        <time>2021-06-10T10:38:18Z</time>
      </trkpt>
      <trkpt lat="44.50421" lon="5.0211">
        <ele>749.45</ele>
        <time>2021-06-10T10:40:07Z</time>
      </trkpt>
      <trkpt lat="44.50421" lon="5.02111">
        <ele>749.24</ele>
        <time>2021-06-10T10:41:11Z</time>
      </trkpt>
      <trkpt lat="44.50422" lon="5.02107">
        <ele>748.86</ele>
        <time>2021-06-10T10:42:56Z</time>
      </trkpt>
      <trkpt lat="44.50421" lon="5.02107">
        <ele>749.09</ele>
        <time>2021-06-10T10:44:37Z</time>
      </trkpt>
      <trkpt lat="44.50422" lon="5.02108">
        <ele>749.25</ele>
        <time>2021-06-10T10:45:32Z</time>
      </trkpt>
      <trkpt lat="44.50423" lon="5.02112">
        <ele>749.05</ele>
        <time>2021-06-10T10:46:59Z</time>
      </trkpt>
      <trkpt lat="44.50422" lon="5.0211">
        <ele>749.34</ele>
        <time>2021-06-10T10:48:31Z</time>
      </trkpt>
      <trkpt lat="44.5042" lon="5.02111">
        <ele>749.58</ele>
        <time>2021-06-10T10:50:05Z</time>
      </trkpt>
      <trkpt lat="44.50419" lon="5.0211">
        <ele>749.72</ele>
        <time>2021-06-10T10:51:19Z</time>
      </trkpt>
      <trkpt lat="44.50421" lon="5.0211">
        <ele>749.72</ele>
        <time>2021-06-10T10:52:37Z</time>
      </trkpt>
      <trkpt lat="44.50421" lon="5.02111">
        <ele>749.81</ele>
        <time>2021-06-10T10:54:50Z</time>
      </trkpt>
      <trkpt lat="44.5042" lon="5.02114">
        <ele>750.21</ele>
        <time>2021-06-10T10:57:08Z</time>
      </trkpt>
      <trkpt lat="44.50423" lon="5.02111">
        <ele>750.26</ele>
        <time>2021-06-10T10:58:51Z</time>
      </trkpt>
      <trkpt lat="44.50421" lon="5.02115">
        <ele>751.43</ele>
        <time>2021-06-10T11:00:33Z</time>
      </trkpt>
      <trkpt lat="44.50423" lon="5.02111">
        <ele>750.32</ele>
        <time>2021-06-10T11:01:27Z</time>
      </trkpt>
      <trkpt lat="44.50424" lon="5.02111">
        <ele>750.34</ele>
        <time>2021-06-10T11:03:20Z</time>
      </trkpt>
      <trkpt lat="44.50422" lon="5.02109">
        <ele>750.31</ele>
        <time>2021-06-10T11:05:05Z</time>
      </trkpt>
      <trkpt lat="44.50425" lon="5.0211">
        <ele>750.95</ele>
        <time>2021-06-10T11:06:46Z</time>
      </trkpt>
      <trkpt lat="44.50425" lon="5.02112">
        <ele>750.99</ele>
        <time>2021-06-10T11:08:47Z</time>
      </trkpt>
      <trkpt lat="44.50426" lon="5.02113">
        <ele>750.92</ele>
        <time>2021-06-10T11:10:55Z</time>
      </trkpt>
      <trkpt lat="44.50425" lon="5.02113">
        <ele>752.23</ele>
        <time>2021-06-10T11:12:11Z</time>
      </trkpt>
      <trkpt lat="44.50429" lon="5.02115">
        <ele>752.21</ele>
        <time>2021-06-10T11:13:02Z</time>
      </trkpt>
      <trkpt lat="44.50427" lon="5.02119">
        <ele>752.56</ele>
        <time>2021-06-10T11:13:47Z</time>
      </trkpt>
      <trkpt lat="44.50425" lon="5.02119">
        <ele>752.75</ele>
        <time>2021-06-10T11:14:36Z</time>
      </trkpt>
      <trkpt lat="44.50419" lon="5.02133">
        <ele>752.42</ele>
        <time>2021-06-10T11:14:54Z</time>
      </trkpt>
      <trkpt lat="44.50406" lon="5.0215">
        <ele>750.96</ele>
        <time>2021-06-10T11:15:14Z</time>
      </trkpt>
      <trkpt lat="44.50395" lon="5.02168">
        <ele>748.52</ele>
        <time>2021-06-10T11:15:33Z</time>
      </trkpt>
      <trkpt lat="44.50381" lon="5.02191">
        <ele>745.42</ele>
        <time>2021-06-10T11:15:55Z</time>
      </trkpt>
      <trkpt lat="44.50372" lon="5.02207">
        <ele>742.38</ele>
        <time>2021-06-10T11:16:13Z</time>
      </trkpt>
      <trkpt lat="44.50358" lon="5.02235">
        <ele>739.33</ele>
        <time>2021-06-10T11:16:38Z</time>
      </trkpt>
      <trkpt lat="44.50345" lon="5.02259">
        <ele>737.26</ele>
        <time>2021-06-10T11:16:58Z</time>
      </trkpt>
      <trkpt lat="44.50336" lon="5.0229">
        <ele>734.4</ele>
        <time>2021-06-10T11:17:25Z</time>
      </trkpt>
      <trkpt lat="44.50333" lon="5.02319">
        <ele>732.34</ele>
        <time>2021-06-10T11:17:45Z</time>
      </trkpt>
      <trkpt lat="44.50337" lon="5.02346">
        <ele>730.81</ele>
        <time>2021-06-10T11:18:06Z</time>
      </trkpt>
      <trkpt lat="44.50348" lon="5.02378">
        <ele>729.13</ele>
        <time>2021-06-10T11:18:28Z</time>
      </trkpt>
      <trkpt lat="44.50359" lon="5.02399">
        <ele>727.68</ele>
        <time>2021-06-10T11:18:47Z</time>
      </trkpt>
      <trkpt lat="44.50372" lon="5.02417">
        <ele>724.81</ele>
        <time>2021-06-10T11:19:05Z</time>
      </trkpt>
      <trkpt lat="44.50385" lon="5.02435">
        <ele>721.65</ele>
        <time>2021-06-10T11:19:22Z</time>
      </trkpt>
      <trkpt lat="44.504" lon="5.02448">
        <ele>718.49</ele>
        <time>2021-06-10T11:19:39Z</time>
      </trkpt>
      <trkpt lat="44.5041" lon="5.02467">
        <ele>716.62</ele>
        <time>2021-06-10T11:19:58Z</time>
      </trkpt>
      <trkpt lat="44.50424" lon="5.02492">
        <ele>714.94</ele>
        <time>2021-06-10T11:20:21Z</time>
      </trkpt>
      <trkpt lat="44.50442" lon="5.02505">
        <ele>711.83</ele>
        <time>2021-06-10T11:20:44Z</time>
      </trkpt>
      <trkpt lat="44.50459" lon="5.02504">
        <ele>708.64</ele>
        <time>2021-06-10T11:21:03Z</time>
      </trkpt>
      <trkpt lat="44.50472" lon="5.02502">
        <ele>705.54</ele>
        <time>2021-06-10T11:21:17Z</time>
      </trkpt>
      <trkpt lat="44.50485" lon="5.02502">
        <ele>702.49</ele>
        <time>2021-06-10T11:21:33Z</time>
      </trkpt>
      <trkpt lat="44.50497" lon="5.02502">
        <ele>699.36</ele>
        <time>2021-06-10T11:21:50Z</time>
      </trkpt>
      <trkpt lat="44.50507" lon="5.02505">
        <ele>696.21</ele>
        <time>2021-06-10T11:22:07Z</time>
      </trkpt>
      <trkpt lat="44.50518" lon="5.02508">
        <ele>693.08</ele>
        <time>2021-06-10T11:22:22Z</time>
      </trkpt>
      <trkpt lat="44.50529" lon="5.02519">
        <ele>689.98</ele>
        <time>2021-06-10T11:22:40Z</time>
      </trkpt>
      <trkpt lat="44.50538" lon="5.02523">
        <ele>686.93</ele>
        <time>2021-06-10T11:22:52Z</time>
      </trkpt>
      <trkpt lat="44.50551" lon="5.02531">
        <ele>683.79</ele>
        <time>2021-06-10T11:23:08Z</time>
      </trkpt>
      <trkpt lat="44.50562" lon="5.02536">
        <ele>680.6</ele>
        <time>2021-06-10T11:23:24Z</time>
      </trkpt>
      <trkpt lat="44.50578" lon="5.02542">
        <ele>677.52</ele>
        <time>2021-06-10T11:23:41Z</time>
      </trkpt>
      <trkpt lat="44.5059" lon="5.02555">
        <ele>674.78</ele>
        <time>2021-06-10T11:23:58Z</time>
      </trkpt>
      <trkpt lat="44.50601" lon="5.02574">
        <ele>671.71</ele>
        <time>2021-06-10T11:24:18Z</time>
      </trkpt>
      <trkpt lat="44.50613" lon="5.02597">
        <ele>668.63</ele>
        <time>2021-06-10T11:24:39Z</time>
      </trkpt>
      <trkpt lat="44.50617" lon="5.02623">
        <ele>665.91</ele>
        <time>2021-06-10T11:24:58Z</time>
      </trkpt>
      <trkpt lat="44.50619" lon="5.02644">
        <ele>664.27</ele>
        <time>2021-06-10T11:25:15Z</time>
      </trkpt>
      <trkpt lat="44.50628" lon="5.0267">
        <ele>661</ele>
        <time>2021-06-10T11:25:37Z</time>
      </trkpt>
      <trkpt lat="44.50635" lon="5.02691">
        <ele>657.93</ele>
        <time>2021-06-10T11:25:54Z</time>
      </trkpt>
      <trkpt lat="44.50642" lon="5.02711">
        <ele>654.77</ele>
        <time>2021-06-10T11:26:12Z</time>
      </trkpt>
      <trkpt lat="44.50651" lon="5.02731">
        <ele>651.73</ele>
        <time>2021-06-10T11:26:31Z</time>
      </trkpt>
      <trkpt lat="44.50657" lon="5.02754">
        <ele>648.57</ele>
        <time>2021-06-10T11:26:51Z</time>
      </trkpt>
      <trkpt lat="44.50662" lon="5.02774">
        <ele>645.54</ele>
        <time>2021-06-10T11:27:07Z</time>
      </trkpt>
      <trkpt lat="44.50663" lon="5.02788">
        <ele>642.89</ele>
        <time>2021-06-10T11:27:22Z</time>
      </trkpt>
      <trkpt lat="44.50663" lon="5.028">
        <ele>640.43</ele>
        <time>2021-06-10T11:27:43Z</time>
      </trkpt>
      <trkpt lat="44.50659" lon="5.0282">
        <ele>638.29</ele>
        <time>2021-06-10T11:28:06Z</time>
      </trkpt>
      <trkpt lat="44.50656" lon="5.02841">
        <ele>635.12</ele>
        <time>2021-06-10T11:28:25Z</time>
      </trkpt>
      <trkpt lat="44.5065" lon="5.02864">
        <ele>631.99</ele>
        <time>2021-06-10T11:28:43Z</time>
      </trkpt>
      <trkpt lat="44.50647" lon="5.02874">
        <ele>629.99</ele>
        <time>2021-06-10T11:28:53Z</time>
      </trkpt>
      <trkpt lat="44.50643" lon="5.02891">
        <ele>627.42</ele>
        <time>2021-06-10T11:29:07Z</time>
      </trkpt>
      <trkpt lat="44.50641" lon="5.02913">
        <ele>624.42</ele>
        <time>2021-06-10T11:29:25Z</time>
      </trkpt>
      <trkpt lat="44.50635" lon="5.02941">
        <ele>621.76</ele>
        <time>2021-06-10T11:29:47Z</time>
      </trkpt>
      <trkpt lat="44.50634" lon="5.02952">
        <ele>620.64</ele>
        <time>2021-06-10T11:29:55Z</time>
      </trkpt>
      <trkpt lat="44.50627" lon="5.02978">
        <ele>618.33</ele>
        <time>2021-06-10T11:30:15Z</time>
      </trkpt>
      <trkpt lat="44.50626" lon="5.03009">
        <ele>615.78</ele>
        <time>2021-06-10T11:30:37Z</time>
      </trkpt>
      <trkpt lat="44.50627" lon="5.03034">
        <ele>614.23</ele>
        <time>2021-06-10T11:30:55Z</time>
      </trkpt>
      <trkpt lat="44.5063" lon="5.03061">
        <ele>613.43</ele>
        <time>2021-06-10T11:31:19Z</time>
      </trkpt>
      <trkpt lat="44.50633" lon="5.03066">
        <ele>612.75</ele>
        <time>2021-06-10T11:31:42Z</time>
      </trkpt>
      <trkpt lat="44.50634" lon="5.0307">
        <ele>612.84</ele>
        <time>2021-06-10T11:32:10Z</time>
      </trkpt>
      <trkpt lat="44.50637" lon="5.03094">
        <ele>612.62</ele>
        <time>2021-06-10T11:32:33Z</time>
      </trkpt>
      <trkpt lat="44.50644" lon="5.03121">
        <ele>612.83</ele>
        <time>2021-06-10T11:32:53Z</time>
      </trkpt>
      <trkpt lat="44.5064" lon="5.0315">
        <ele>614.92</ele>
        <time>2021-06-10T11:33:15Z</time>
      </trkpt>
      <trkpt lat="44.50641" lon="5.03179">
        <ele>617.12</ele>
        <time>2021-06-10T11:33:37Z</time>
      </trkpt>
      <trkpt lat="44.50643" lon="5.032">
        <ele>619.42</ele>
        <time>2021-06-10T11:33:54Z</time>
      </trkpt>
      <trkpt lat="44.50643" lon="5.03216">
        <ele>620.61</ele>
        <time>2021-06-10T11:34:08Z</time>
      </trkpt>
      <trkpt lat="44.50645" lon="5.03236">
        <ele>622.52</ele>
        <time>2021-06-10T11:34:28Z</time>
      </trkpt>
      <trkpt lat="44.50647" lon="5.03262">
        <ele>623.55</ele>
        <time>2021-06-10T11:34:46Z</time>
      </trkpt>
      <trkpt lat="44.50649" lon="5.03279">
        <ele>623.66</ele>
        <time>2021-06-10T11:34:57Z</time>
      </trkpt>
      <trkpt lat="44.50657" lon="5.03297">
        <ele>624.16</ele>
        <time>2021-06-10T11:35:14Z</time>
      </trkpt>
      <trkpt lat="44.50667" lon="5.03322">
        <ele>624.87</ele>
        <time>2021-06-10T11:35:34Z</time>
      </trkpt>
      <trkpt lat="44.50673" lon="5.03342">
        <ele>626.83</ele>
        <time>2021-06-10T11:35:52Z</time>
      </trkpt>
      <trkpt lat="44.50684" lon="5.03351">
        <ele>628.84</ele>
        <time>2021-06-10T11:36:10Z</time>
      </trkpt>
      <trkpt lat="44.50702" lon="5.03358">
        <ele>630.82</ele>
        <time>2021-06-10T11:36:29Z</time>
      </trkpt>
      <trkpt lat="44.5071" lon="5.03372">
        <ele>631.52</ele>
        <time>2021-06-10T11:36:45Z</time>
      </trkpt>
      <trkpt lat="44.50716" lon="5.034">
        <ele>631.92</ele>
        <time>2021-06-10T11:37:03Z</time>
      </trkpt>
      <trkpt lat="44.50716" lon="5.03403">
        <ele>631.94</ele>
        <time>2021-06-10T11:37:05Z</time>
      </trkpt>
      <trkpt lat="44.50715" lon="5.03438">
        <ele>631.95</ele>
        <time>2021-06-10T11:37:27Z</time>
      </trkpt>
      <trkpt lat="44.50715" lon="5.03469">
        <ele>630.32</ele>
        <time>2021-06-10T11:37:48Z</time>
      </trkpt>
      <trkpt lat="44.50714" lon="5.03474">
        <ele>629.97</ele>
        <time>2021-06-10T11:37:52Z</time>
      </trkpt>
      <trkpt lat="44.50707" lon="5.03501">
        <ele>628.46</ele>
        <time>2021-06-10T11:38:11Z</time>
      </trkpt>
      <trkpt lat="44.50707" lon="5.03526">
        <ele>626.92</ele>
        <time>2021-06-10T11:38:27Z</time>
      </trkpt>
      <trkpt lat="44.50707" lon="5.03552">
        <ele>626.6</ele>
        <time>2021-06-10T11:38:45Z</time>
      </trkpt>
      <trkpt lat="44.50701" lon="5.03576">
        <ele>627.79</ele>
        <time>2021-06-10T11:39:02Z</time>
      </trkpt>
      <trkpt lat="44.50703" lon="5.03601">
        <ele>627.84</ele>
        <time>2021-06-10T11:39:20Z</time>
      </trkpt>
      <trkpt lat="44.50699" lon="5.03626">
        <ele>626.89</ele>
        <time>2021-06-10T11:39:38Z</time>
      </trkpt>
      <trkpt lat="44.50702" lon="5.03647">
        <ele>625.2</ele>
        <time>2021-06-10T11:39:57Z</time>
      </trkpt>
      <trkpt lat="44.50702" lon="5.03669">
        <ele>622.34</ele>
        <time>2021-06-10T11:40:15Z</time>
      </trkpt>
      <trkpt lat="44.507" lon="5.03689">
        <ele>620.57</ele>
        <time>2021-06-10T11:40:32Z</time>
      </trkpt>
      <trkpt lat="44.507" lon="5.0371">
        <ele>618.58</ele>
        <time>2021-06-10T11:40:51Z</time>
      </trkpt>
      <trkpt lat="44.50698" lon="5.03733">
        <ele>615.42</ele>
        <time>2021-06-10T11:41:10Z</time>
      </trkpt>
      <trkpt lat="44.50695" lon="5.03752">
        <ele>613.95</ele>
        <time>2021-06-10T11:41:32Z</time>
      </trkpt>
      <trkpt lat="44.50694" lon="5.03757">
        <ele>613.08</ele>
        <time>2021-06-10T11:41:52Z</time>
      </trkpt>
      <trkpt lat="44.50696" lon="5.03776">
        <ele>612.77</ele>
        <time>2021-06-10T11:42:08Z</time>
      </trkpt>
      <trkpt lat="44.50696" lon="5.03808">
        <ele>611.55</ele>
        <time>2021-06-10T11:42:31Z</time>
      </trkpt>
      <trkpt lat="44.50699" lon="5.03834">
        <ele>611.11</ele>
        <time>2021-06-10T11:42:51Z</time>
      </trkpt>
      <trkpt lat="44.50704" lon="5.03852">
        <ele>609.98</ele>
        <time>2021-06-10T11:43:06Z</time>
      </trkpt>
      <trkpt lat="44.50701" lon="5.03864">
        <ele>608.45</ele>
        <time>2021-06-10T11:43:16Z</time>
      </trkpt>
      <trkpt lat="44.50695" lon="5.0389">
        <ele>606.79</ele>
        <time>2021-06-10T11:43:35Z</time>
      </trkpt>
      <trkpt lat="44.50692" lon="5.03915">
        <ele>604.37</ele>
        <time>2021-06-10T11:43:55Z</time>
      </trkpt>
      <trkpt lat="44.50689" lon="5.03934">
        <ele>601.93</ele>
        <time>2021-06-10T11:44:11Z</time>
      </trkpt>
      <trkpt lat="44.50687" lon="5.0396">
        <ele>600.96</ele>
        <time>2021-06-10T11:44:27Z</time>
      </trkpt>
      <trkpt lat="44.50688" lon="5.03967">
        <ele>600.9</ele>
        <time>2021-06-10T11:44:31Z</time>
      </trkpt>
      <trkpt lat="44.50683" lon="5.03998">
        <ele>600.99</ele>
        <time>2021-06-10T11:44:49Z</time>
      </trkpt>
      <trkpt lat="44.50675" lon="5.04016">
        <ele>601.57</ele>
        <time>2021-06-10T11:45:04Z</time>
      </trkpt>
      <trkpt lat="44.50672" lon="5.04026">
        <ele>603.43</ele>
        <time>2021-06-10T11:45:21Z</time>
      </trkpt>
      <trkpt lat="44.50673" lon="5.0403">
        <ele>603.87</ele>
        <time>2021-06-10T11:45:35Z</time>
      </trkpt>
      <trkpt lat="44.50674" lon="5.04051">
        <ele>603.71</ele>
        <time>2021-06-10T11:45:50Z</time>
      </trkpt>
      <trkpt lat="44.50674" lon="5.04064">
        <ele>603.52</ele>
        <time>2021-06-10T11:45:59Z</time>
      </trkpt>
      <trkpt lat="44.50678" lon="5.04091">
        <ele>602.13</ele>
        <time>2021-06-10T11:46:17Z</time>
      </trkpt>
      <trkpt lat="44.50679" lon="5.04093">
        <ele>601.96</ele>
        <time>2021-06-10T11:46:19Z</time>
      </trkpt>
      <trkpt lat="44.50681" lon="5.0411">
        <ele>601.16</ele>
        <time>2021-06-10T11:46:29Z</time>
      </trkpt>
      <trkpt lat="44.50682" lon="5.04121">
        <ele>600.13</ele>
        <time>2021-06-10T11:46:43Z</time>
      </trkpt>
      <trkpt lat="44.50683" lon="5.04128">
        <ele>600</ele>
        <time>2021-06-10T11:46:47Z</time>
      </trkpt>
      <trkpt lat="44.50686" lon="5.04141">
        <ele>599.52</ele>
        <time>2021-06-10T11:46:57Z</time>
      </trkpt>
      <trkpt lat="44.50686" lon="5.04155">
        <ele>598.72</ele>
        <time>2021-06-10T11:47:06Z</time>
      </trkpt>
      <trkpt lat="44.50689" lon="5.04177">
        <ele>597.96</ele>
        <time>2021-06-10T11:47:24Z</time>
      </trkpt>
      <trkpt lat="44.50698" lon="5.04192">
        <ele>597.97</ele>
        <time>2021-06-10T11:47:39Z</time>
      </trkpt>
      <trkpt lat="44.50725" lon="5.04219">
        <ele>598.45</ele>
        <time>2021-06-10T11:48:07Z</time>
      </trkpt>
      <trkpt lat="44.50747" lon="5.04245">
        <ele>598.14</ele>
        <time>2021-06-10T11:48:34Z</time>
      </trkpt>
      <trkpt lat="44.50765" lon="5.04274">
        <ele>596.72</ele>
        <time>2021-06-10T11:48:58Z</time>
      </trkpt>
      <trkpt lat="44.50772" lon="5.04301">
        <ele>595.59</ele>
        <time>2021-06-10T11:49:15Z</time>
      </trkpt>
      <trkpt lat="44.50769" lon="5.0433">
        <ele>595.13</ele>
        <time>2021-06-10T11:49:36Z</time>
      </trkpt>
      <trkpt lat="44.50766" lon="5.04339">
        <ele>594.59</ele>
        <time>2021-06-10T11:49:44Z</time>
      </trkpt>
      <trkpt lat="44.50765" lon="5.04352">
        <ele>594.35</ele>
        <time>2021-06-10T11:49:55Z</time>
      </trkpt>
      <trkpt lat="44.50759" lon="5.04383">
        <ele>592.75</ele>
        <time>2021-06-10T11:50:16Z</time>
      </trkpt>
      <trkpt lat="44.50756" lon="5.04387">
        <ele>592.16</ele>
        <time>2021-06-10T11:50:39Z</time>
      </trkpt>
      <trkpt lat="44.50749" lon="5.04403">
        <ele>591.17</ele>
        <time>2021-06-10T11:50:57Z</time>
      </trkpt>
      <trkpt lat="44.5074" lon="5.04418">
        <ele>590.63</ele>
        <time>2021-06-10T11:51:12Z</time>
      </trkpt>
      <trkpt lat="44.50731" lon="5.04427">
        <ele>589.04</ele>
        <time>2021-06-10T11:51:23Z</time>
      </trkpt>
      <trkpt lat="44.50719" lon="5.04438">
        <ele>587.6</ele>
        <time>2021-06-10T11:51:37Z</time>
      </trkpt>
      <trkpt lat="44.50711" lon="5.04442">
        <ele>586.87</ele>
        <time>2021-06-10T11:51:43Z</time>
      </trkpt>
      <trkpt lat="44.50698" lon="5.04445">
        <ele>585.96</ele>
        <time>2021-06-10T11:51:55Z</time>
      </trkpt>
      <trkpt lat="44.50692" lon="5.04455">
        <ele>585.53</ele>
        <time>2021-06-10T11:52:08Z</time>
      </trkpt>
      <trkpt lat="44.50704" lon="5.04473">
        <ele>582.75</ele>
        <time>2021-06-10T11:52:33Z</time>
      </trkpt>
      <trkpt lat="44.50725" lon="5.04484">
        <ele>579.91</ele>
        <time>2021-06-10T11:52:58Z</time>
      </trkpt>
      <trkpt lat="44.50734" lon="5.04501">
        <ele>577.81</ele>
        <time>2021-06-10T11:53:22Z</time>
      </trkpt>
      <trkpt lat="44.5074" lon="5.04521">
        <ele>577.83</ele>
        <time>2021-06-10T11:53:39Z</time>
      </trkpt>
      <trkpt lat="44.50742" lon="5.04526">
        <ele>577.91</ele>
        <time>2021-06-10T11:53:42Z</time>
      </trkpt>
      <trkpt lat="44.50745" lon="5.0454">
        <ele>578.47</ele>
        <time>2021-06-10T11:53:52Z</time>
      </trkpt>
      <trkpt lat="44.50743" lon="5.04569">
        <ele>580.33</ele>
        <time>2021-06-10T11:54:11Z</time>
      </trkpt>
      <trkpt lat="44.50742" lon="5.04595">
        <ele>581.89</ele>
        <time>2021-06-10T11:54:31Z</time>
      </trkpt>
      <trkpt lat="44.50742" lon="5.046">
        <ele>582.11</ele>
        <time>2021-06-10T11:54:34Z</time>
      </trkpt>
      <trkpt lat="44.50741" lon="5.04605">
        <ele>582.38</ele>
        <time>2021-06-10T11:54:38Z</time>
      </trkpt>
      <trkpt lat="44.50737" lon="5.04638">
        <ele>584.76</ele>
        <time>2021-06-10T11:55:01Z</time>
      </trkpt>
      <trkpt lat="44.50736" lon="5.04643">
        <ele>585.01</ele>
        <time>2021-06-10T11:55:05Z</time>
      </trkpt>
      <trkpt lat="44.50731" lon="5.0467">
        <ele>586.62</ele>
        <time>2021-06-10T11:55:25Z</time>
      </trkpt>
      <trkpt lat="44.50727" lon="5.04705">
        <ele>588.37</ele>
        <time>2021-06-10T11:55:49Z</time>
      </trkpt>
      <trkpt lat="44.50726" lon="5.04736">
        <ele>590.39</ele>
        <time>2021-06-10T11:56:11Z</time>
      </trkpt>
      <trkpt lat="44.50726" lon="5.04758">
        <ele>591.63</ele>
        <time>2021-06-10T11:56:27Z</time>
      </trkpt>
      <trkpt lat="44.50718" lon="5.048">
        <ele>594.08</ele>
        <time>2021-06-10T11:56:54Z</time>
      </trkpt>
      <trkpt lat="44.50712" lon="5.04822">
        <ele>595.5</ele>
        <time>2021-06-10T11:57:16Z</time>
      </trkpt>
      <trkpt lat="44.50699" lon="5.04847">
        <ele>596.98</ele>
        <time>2021-06-10T11:57:41Z</time>
      </trkpt>
      <trkpt lat="44.50687" lon="5.04847">
        <ele>597.22</ele>
        <time>2021-06-10T11:58:11Z</time>
      </trkpt>
      <trkpt lat="44.50692" lon="5.04849">
        <ele>596.84</ele>
        <time>2021-06-10T11:59:05Z</time>
      </trkpt>
      <trkpt lat="44.50697" lon="5.04845">
        <ele>596.3</ele>
        <time>2021-06-10T11:59:55Z</time>
      </trkpt>
      <trkpt lat="44.50694" lon="5.04843">
        <ele>596.14</ele>
        <time>2021-06-10T12:00:49Z</time>
      </trkpt>
      <trkpt lat="44.50697" lon="5.0484">
        <ele>596.49</ele>
        <time>2021-06-10T12:01:56Z</time>
      </trkpt>
      <trkpt lat="44.50697" lon="5.04846">
        <ele>597.4</ele>
        <time>2021-06-10T12:02:46Z</time>
      </trkpt>
      <trkpt lat="44.50695" lon="5.04844">
        <ele>596.94</ele>
        <time>2021-06-10T12:03:17Z</time>
      </trkpt>
      <trkpt lat="44.50689" lon="5.04847">
        <ele>596.29</ele>
        <time>2021-06-10T12:03:48Z</time>
      </trkpt>
      <trkpt lat="44.50678" lon="5.0484">
        <ele>596.2</ele>
        <time>2021-06-10T12:04:26Z</time>
      </trkpt>
      <trkpt lat="44.50668" lon="5.04829">
        <ele>593.1</ele>
        <time>2021-06-10T12:04:45Z</time>
      </trkpt>
      <trkpt lat="44.50656" lon="5.04819">
        <ele>590.1</ele>
        <time>2021-06-10T12:05:03Z</time>
      </trkpt>
      <trkpt lat="44.50641" lon="5.04807">
        <ele>587.61</ele>
        <time>2021-06-10T12:05:22Z</time>
      </trkpt>
      <trkpt lat="44.50625" lon="5.04795">
        <ele>584.75</ele>
        <time>2021-06-10T12:05:44Z</time>
      </trkpt>
      <trkpt lat="44.5061" lon="5.04788">
        <ele>582.12</ele>
        <time>2021-06-10T12:06:02Z</time>
      </trkpt>
      <trkpt lat="44.50597" lon="5.0478">
        <ele>580.29</ele>
        <time>2021-06-10T12:06:20Z</time>
      </trkpt>
      <trkpt lat="44.5058" lon="5.04771">
        <ele>577.45</ele>
        <time>2021-06-10T12:06:43Z</time>
      </trkpt>
      <trkpt lat="44.50565" lon="5.04761">
        <ele>575.15</ele>
        <time>2021-06-10T12:07:01Z</time>
      </trkpt>
      <trkpt lat="44.50553" lon="5.04751">
        <ele>573.32</ele>
        <time>2021-06-10T12:07:16Z</time>
      </trkpt>
      <trkpt lat="44.5054" lon="5.04743">
        <ele>570.18</ele>
        <time>2021-06-10T12:07:37Z</time>
      </trkpt>
      <trkpt lat="44.50528" lon="5.04741">
        <ele>567.09</ele>
        <time>2021-06-10T12:07:56Z</time>
      </trkpt>
      <trkpt lat="44.50516" lon="5.04742">
        <ele>563.98</ele>
        <time>2021-06-10T12:08:16Z</time>
      </trkpt>
      <trkpt lat="44.50507" lon="5.04741">
        <ele>560.94</ele>
        <time>2021-06-10T12:08:33Z</time>
      </trkpt>
      <trkpt lat="44.50498" lon="5.04737">
        <ele>558.3</ele>
        <time>2021-06-10T12:08:53Z</time>
      </trkpt>
      <trkpt lat="44.50488" lon="5.0473">
        <ele>555.2</ele>
        <time>2021-06-10T12:09:12Z</time>
      </trkpt>
      <trkpt lat="44.50477" lon="5.04725">
        <ele>552.05</ele>
        <time>2021-06-10T12:09:31Z</time>
      </trkpt>
      <trkpt lat="44.50464" lon="5.04727">
        <ele>548.96</ele>
        <time>2021-06-10T12:09:51Z</time>
      </trkpt>
      <trkpt lat="44.50447" lon="5.04744">
        <ele>545.79</ele>
        <time>2021-06-10T12:10:17Z</time>
      </trkpt>
      <trkpt lat="44.50431" lon="5.04758">
        <ele>543.74</ele>
        <time>2021-06-10T12:10:39Z</time>
      </trkpt>
      <trkpt lat="44.50415" lon="5.04768">
        <ele>541.67</ele>
        <time>2021-06-10T12:10:58Z</time>
      </trkpt>
      <trkpt lat="44.50413" lon="5.04769">
        <ele>541.33</ele>
        <time>2021-06-10T12:11:00Z</time>
      </trkpt>
      <trkpt lat="44.50401" lon="5.04772">
        <ele>539.09</ele>
        <time>2021-06-10T12:11:17Z</time>
      </trkpt>
      <trkpt lat="44.5038" lon="5.04769">
        <ele>536.45</ele>
        <time>2021-06-10T12:11:42Z</time>
      </trkpt>
      <trkpt lat="44.50361" lon="5.0476">
        <ele>535.46</ele>
        <time>2021-06-10T12:12:05Z</time>
      </trkpt>
      <trkpt lat="44.50338" lon="5.04754">
        <ele>533.23</ele>
        <time>2021-06-10T12:12:28Z</time>
      </trkpt>
      <trkpt lat="44.50318" lon="5.04752">
        <ele>531.01</ele>
        <time>2021-06-10T12:12:49Z</time>
      </trkpt>
      <trkpt lat="44.503" lon="5.04751">
        <ele>527.78</ele>
        <time>2021-06-10T12:13:08Z</time>
      </trkpt>
      <trkpt lat="44.50282" lon="5.04749">
        <ele>525.7</ele>
        <time>2021-06-10T12:13:29Z</time>
      </trkpt>
      <trkpt lat="44.50263" lon="5.04744">
        <ele>523.32</ele>
        <time>2021-06-10T12:13:51Z</time>
      </trkpt>
      <trkpt lat="44.50248" lon="5.04731">
        <ele>521.24</ele>
        <time>2021-06-10T12:14:10Z</time>
      </trkpt>
      <trkpt lat="44.5024" lon="5.04711">
        <ele>519.24</ele>
        <time>2021-06-10T12:14:30Z</time>
      </trkpt>
      <trkpt lat="44.50233" lon="5.04697">
        <ele>516.65</ele>
        <time>2021-06-10T12:14:52Z</time>
      </trkpt>
      <trkpt lat="44.50225" lon="5.04691">
        <ele>513.45</ele>
        <time>2021-06-10T12:15:11Z</time>
      </trkpt>
      <trkpt lat="44.50222" lon="5.04703">
        <ele>510.83</ele>
        <time>2021-06-10T12:15:32Z</time>
      </trkpt>
      <trkpt lat="44.50205" lon="5.04695">
        <ele>507.85</ele>
        <time>2021-06-10T12:15:53Z</time>
      </trkpt>
      <trkpt lat="44.50192" lon="5.04696">
        <ele>504.93</ele>
        <time>2021-06-10T12:16:12Z</time>
      </trkpt>
      <trkpt lat="44.50181" lon="5.04691">
        <ele>502.16</ele>
        <time>2021-06-10T12:16:30Z</time>
      </trkpt>
      <trkpt lat="44.50172" lon="5.04684">
        <ele>499.1</ele>
        <time>2021-06-10T12:16:47Z</time>
      </trkpt>
      <trkpt lat="44.50167" lon="5.04668">
        <ele>495.99</ele>
        <time>2021-06-10T12:17:07Z</time>
      </trkpt>
      <trkpt lat="44.50166" lon="5.04659">
        <ele>494.69</ele>
        <time>2021-06-10T12:17:16Z</time>
      </trkpt>
      <trkpt lat="44.5016" lon="5.04632">
        <ele>491.43</ele>
        <time>2021-06-10T12:17:39Z</time>
      </trkpt>
      <trkpt lat="44.50155" lon="5.04611">
        <ele>488.4</ele>
        <time>2021-06-10T12:17:57Z</time>
      </trkpt>
      <trkpt lat="44.50152" lon="5.04588">
        <ele>485.44</ele>
        <time>2021-06-10T12:18:15Z</time>
      </trkpt>
      <trkpt lat="44.50151" lon="5.04569">
        <ele>482.56</ele>
        <time>2021-06-10T12:18:34Z</time>
      </trkpt>
      <trkpt lat="44.5015" lon="5.04552">
        <ele>480.71</ele>
        <time>2021-06-10T12:18:51Z</time>
      </trkpt>
      <trkpt lat="44.50145" lon="5.04536">
        <ele>478.82</ele>
        <time>2021-06-10T12:19:06Z</time>
      </trkpt>
      <trkpt lat="44.50152" lon="5.04517">
        <ele>475.66</ele>
        <time>2021-06-10T12:19:29Z</time>
      </trkpt>
      <trkpt lat="44.50149" lon="5.04493">
        <ele>472.48</ele>
        <time>2021-06-10T12:19:47Z</time>
      </trkpt>
      <trkpt lat="44.50137" lon="5.04474">
        <ele>469.23</ele>
        <time>2021-06-10T12:20:07Z</time>
      </trkpt>
      <trkpt lat="44.50139" lon="5.04451">
        <ele>466.6</ele>
        <time>2021-06-10T12:20:34Z</time>
      </trkpt>
      <trkpt lat="44.50139" lon="5.0445">
        <ele>466.31</ele>
        <time>2021-06-10T12:20:36Z</time>
      </trkpt>
      <trkpt lat="44.50133" lon="5.04426">
        <ele>463.51</ele>
        <time>2021-06-10T12:20:59Z</time>
      </trkpt>
      <trkpt lat="44.50133" lon="5.04417">
        <ele>462.32</ele>
        <time>2021-06-10T12:21:06Z</time>
      </trkpt>
      <trkpt lat="44.50126" lon="5.04383">
        <ele>459.9</ele>
        <time>2021-06-10T12:21:35Z</time>
      </trkpt>
      <trkpt lat="44.50118" lon="5.04359">
        <ele>456.83</ele>
        <time>2021-06-10T12:21:55Z</time>
      </trkpt>
      <trkpt lat="44.50113" lon="5.04347">
        <ele>453.73</ele>
        <time>2021-06-10T12:22:12Z</time>
      </trkpt>
      <trkpt lat="44.50107" lon="5.0433">
        <ele>450.65</ele>
        <time>2021-06-10T12:22:33Z</time>
      </trkpt>
      <trkpt lat="44.501" lon="5.04311">
        <ele>447.45</ele>
        <time>2021-06-10T12:22:56Z</time>
      </trkpt>
      <trkpt lat="44.50096" lon="5.04283">
        <ele>444.25</ele>
        <time>2021-06-10T12:23:21Z</time>
      </trkpt>
      <trkpt lat="44.50093" lon="5.04259">
        <ele>441.16</ele>
        <time>2021-06-10T12:23:43Z</time>
      </trkpt>
      <trkpt lat="44.50086" lon="5.04231">
        <ele>438.17</ele>
        <time>2021-06-10T12:24:09Z</time>
      </trkpt>
      <trkpt lat="44.5008" lon="5.04198">
        <ele>437.37</ele>
        <time>2021-06-10T12:24:34Z</time>
      </trkpt>
      <trkpt lat="44.5008" lon="5.04172">
        <ele>434.32</ele>
        <time>2021-06-10T12:24:54Z</time>
      </trkpt>
      <trkpt lat="44.50079" lon="5.04168">
        <ele>433.84</ele>
        <time>2021-06-10T12:24:57Z</time>
      </trkpt>
      <trkpt lat="44.50079" lon="5.04159">
        <ele>432.57</ele>
        <time>2021-06-10T12:25:03Z</time>
      </trkpt>
      <trkpt lat="44.50074" lon="5.04127">
        <ele>429.28</ele>
        <time>2021-06-10T12:25:26Z</time>
      </trkpt>
      <trkpt lat="44.50073" lon="5.04103">
        <ele>426.24</ele>
        <time>2021-06-10T12:25:45Z</time>
      </trkpt>
      <trkpt lat="44.50074" lon="5.04084">
        <ele>423.23</ele>
        <time>2021-06-10T12:26:05Z</time>
      </trkpt>
      <trkpt lat="44.50078" lon="5.04061">
        <ele>420.22</ele>
        <time>2021-06-10T12:26:32Z</time>
      </trkpt>
      <trkpt lat="44.50079" lon="5.04056">
        <ele>419.34</ele>
        <time>2021-06-10T12:26:57Z</time>
      </trkpt>
      <trkpt lat="44.50075" lon="5.04061">
        <ele>419.17</ele>
        <time>2021-06-10T12:27:27Z</time>
      </trkpt>
      <trkpt lat="44.5007" lon="5.04064">
        <ele>418.92</ele>
        <time>2021-06-10T12:27:57Z</time>
      </trkpt>
      <trkpt lat="44.50072" lon="5.04065">
        <ele>417.17</ele>
        <time>2021-06-10T12:29:30Z</time>
      </trkpt>
      <trkpt lat="44.50075" lon="5.04064">
        <ele>417.1</ele>
        <time>2021-06-10T12:32:29Z</time>
      </trkpt>
      <trkpt lat="44.50075" lon="5.04064">
        <ele>418.17</ele>
        <time>2021-06-10T12:34:41Z</time>
      </trkpt>
      <trkpt lat="44.50077" lon="5.04065">
        <ele>418.78</ele>
        <time>2021-06-10T12:35:16Z</time>
      </trkpt>
      <trkpt lat="44.50075" lon="5.04054">
        <ele>418.45</ele>
        <time>2021-06-10T12:36:24Z</time>
      </trkpt>
      <trkpt lat="44.50073" lon="5.04062">
        <ele>417.85</ele>
        <time>2021-06-10T12:36:59Z</time>
      </trkpt>
      <trkpt lat="44.50061" lon="5.0407">
        <ele>417.52</ele>
        <time>2021-06-10T12:37:23Z</time>
      </trkpt>
      <trkpt lat="44.5004" lon="5.04085">
        <ele>414.33</ele>
        <time>2021-06-10T12:37:47Z</time>
      </trkpt>
      <trkpt lat="44.50032" lon="5.04095">
        <ele>412.73</ele>
        <time>2021-06-10T12:37:58Z</time>
      </trkpt>
      <trkpt lat="44.50027" lon="5.04101">
        <ele>412</ele>
        <time>2021-06-10T12:38:04Z</time>
      </trkpt>
      <trkpt lat="44.50024" lon="5.04118">
        <ele>411.57</ele>
        <time>2021-06-10T12:38:18Z</time>
      </trkpt>
      <trkpt lat="44.50024" lon="5.04122">
        <ele>411.69</ele>
        <time>2021-06-10T12:38:20Z</time>
      </trkpt>
      <trkpt lat="44.50026" lon="5.04174">
        <ele>410.77</ele>
        <time>2021-06-10T12:38:53Z</time>
      </trkpt>
      <trkpt lat="44.50026" lon="5.04201">
        <ele>409.59</ele>
        <time>2021-06-10T12:39:11Z</time>
      </trkpt>
      <trkpt lat="44.50023" lon="5.04215">
        <ele>408.95</ele>
        <time>2021-06-10T12:39:24Z</time>
      </trkpt>
      <trkpt lat="44.50002" lon="5.04215">
        <ele>407.6</ele>
        <time>2021-06-10T12:39:42Z</time>
      </trkpt>
      <trkpt lat="44.49985" lon="5.04212">
        <ele>406.6</ele>
        <time>2021-06-10T12:40:00Z</time>
      </trkpt>
      <trkpt lat="44.49967" lon="5.04217">
        <ele>405.5</ele>
        <time>2021-06-10T12:40:21Z</time>
      </trkpt>
      <trkpt lat="44.49932" lon="5.04221">
        <ele>404.56</ele>
        <time>2021-06-10T12:40:50Z</time>
      </trkpt>
      <trkpt lat="44.49918" lon="5.04223">
        <ele>404.7</ele>
        <time>2021-06-10T12:41:02Z</time>
      </trkpt>
      <trkpt lat="44.49913" lon="5.04223">
        <ele>404.74</ele>
        <time>2021-06-10T12:41:06Z</time>
      </trkpt>
      <trkpt lat="44.4989" lon="5.04226">
        <ele>404.41</ele>
        <time>2021-06-10T12:41:25Z</time>
      </trkpt>
      <trkpt lat="44.4988" lon="5.04224">
        <ele>404.49</ele>
        <time>2021-06-10T12:41:40Z</time>
      </trkpt>
      <trkpt lat="44.49878" lon="5.04225">
        <ele>404.53</ele>
        <time>2021-06-10T12:41:54Z</time>
      </trkpt>
      <trkpt lat="44.49875" lon="5.04226">
        <ele>404.56</ele>
        <time>2021-06-10T12:41:57Z</time>
      </trkpt>
      <trkpt lat="44.49861" lon="5.04228">
        <ele>404.62</ele>
        <time>2021-06-10T12:42:09Z</time>
      </trkpt>
      <trkpt lat="44.49858" lon="5.04229">
        <ele>404.65</ele>
        <time>2021-06-10T12:42:12Z</time>
      </trkpt>
      <trkpt lat="44.49847" lon="5.04231">
        <ele>404.66</ele>
        <time>2021-06-10T12:42:23Z</time>
      </trkpt>
      <trkpt lat="44.49824" lon="5.04235">
        <ele>404.68</ele>
        <time>2021-06-10T12:42:42Z</time>
      </trkpt>
      <trkpt lat="44.49802" lon="5.04235">
        <ele>405.52</ele>
        <time>2021-06-10T12:43:00Z</time>
      </trkpt>
      <trkpt lat="44.49781" lon="5.04232">
        <ele>406.35</ele>
        <time>2021-06-10T12:43:17Z</time>
      </trkpt>
      <trkpt lat="44.49747" lon="5.04209">
        <ele>407.34</ele>
        <time>2021-06-10T12:43:47Z</time>
      </trkpt>
      <trkpt lat="44.49746" lon="5.04208">
        <ele>407.43</ele>
        <time>2021-06-10T12:43:48Z</time>
      </trkpt>
      <trkpt lat="44.49738" lon="5.042">
        <ele>407.76</ele>
        <time>2021-06-10T12:43:57Z</time>
      </trkpt>
      <trkpt lat="44.49728" lon="5.04206">
        <ele>408.51</ele>
        <time>2021-06-10T12:44:09Z</time>
      </trkpt>
      <trkpt lat="44.49716" lon="5.04226">
        <ele>410.04</ele>
        <time>2021-06-10T12:44:27Z</time>
      </trkpt>
      <trkpt lat="44.49704" lon="5.0425">
        <ele>412.09</ele>
        <time>2021-06-10T12:44:49Z</time>
      </trkpt>
      <trkpt lat="44.49699" lon="5.04275">
        <ele>413.41</ele>
        <time>2021-06-10T12:45:09Z</time>
      </trkpt>
      <trkpt lat="44.497" lon="5.04284">
        <ele>415.36</ele>
        <time>2021-06-10T12:45:31Z</time>
      </trkpt>
      <trkpt lat="44.49705" lon="5.04302">
        <ele>418.04</ele>
        <time>2021-06-10T12:45:54Z</time>
      </trkpt>
      <trkpt lat="44.49702" lon="5.04316">
        <ele>421.15</ele>
        <time>2021-06-10T12:46:09Z</time>
      </trkpt>
      <trkpt lat="44.49696" lon="5.04338">
        <ele>423.23</ele>
        <time>2021-06-10T12:46:29Z</time>
      </trkpt>
      <trkpt lat="44.49692" lon="5.0436">
        <ele>425.03</ele>
        <time>2021-06-10T12:46:51Z</time>
      </trkpt>
      <trkpt lat="44.49689" lon="5.04381">
        <ele>427.32</ele>
        <time>2021-06-10T12:47:11Z</time>
      </trkpt>
      <trkpt lat="44.49685" lon="5.04405">
        <ele>428.66</ele>
        <time>2021-06-10T12:47:30Z</time>
      </trkpt>
      <trkpt lat="44.4968" lon="5.04428">
        <ele>431.11</ele>
        <time>2021-06-10T12:47:50Z</time>
      </trkpt>
      <trkpt lat="44.49676" lon="5.0445">
        <ele>433</ele>
        <time>2021-06-10T12:48:13Z</time>
      </trkpt>
      <trkpt lat="44.49657" lon="5.04468">
        <ele>436.14</ele>
        <time>2021-06-10T12:48:41Z</time>
      </trkpt>
      <trkpt lat="44.49646" lon="5.04487">
        <ele>439.16</ele>
        <time>2021-06-10T12:49:06Z</time>
      </trkpt>
      <trkpt lat="44.49632" lon="5.04506">
        <ele>442.2</ele>
        <time>2021-06-10T12:49:34Z</time>
      </trkpt>
      <trkpt lat="44.49625" lon="5.0452">
        <ele>445.34</ele>
        <time>2021-06-10T12:49:57Z</time>
      </trkpt>
      <trkpt lat="44.49629" lon="5.04536">
        <ele>448.37</ele>
        <time>2021-06-10T12:50:20Z</time>
      </trkpt>
      <trkpt lat="44.49631" lon="5.04547">
        <ele>451.5</ele>
        <time>2021-06-10T12:50:40Z</time>
      </trkpt>
      <trkpt lat="44.49631" lon="5.04558">
        <ele>454.61</ele>
        <time>2021-06-10T12:50:59Z</time>
      </trkpt>
      <trkpt lat="44.49627" lon="5.04567">
        <ele>457.63</ele>
        <time>2021-06-10T12:51:21Z</time>
      </trkpt>
      <trkpt lat="44.49628" lon="5.04572">
        <ele>457.63</ele>
        <time>2021-06-10T12:51:57Z</time>
      </trkpt>
      <trkpt lat="44.49627" lon="5.04589">
        <ele>460</ele>
        <time>2021-06-10T12:52:21Z</time>
      </trkpt>
      <trkpt lat="44.49624" lon="5.04611">
        <ele>462.99</ele>
        <time>2021-06-10T12:52:45Z</time>
      </trkpt>
      <trkpt lat="44.49616" lon="5.0463">
        <ele>465.37</ele>
        <time>2021-06-10T12:53:03Z</time>
      </trkpt>
      <trkpt lat="44.49606" lon="5.04649">
        <ele>466.52</ele>
        <time>2021-06-10T12:53:23Z</time>
      </trkpt>
      <trkpt lat="44.49599" lon="5.04663">
        <ele>467.05</ele>
        <time>2021-06-10T12:53:41Z</time>
      </trkpt>
      <trkpt lat="44.49593" lon="5.04667">
        <ele>467.03</ele>
        <time>2021-06-10T12:54:01Z</time>
      </trkpt>
      <trkpt lat="44.49588" lon="5.04676">
        <ele>466.66</ele>
        <time>2021-06-10T12:54:31Z</time>
      </trkpt>
      <trkpt lat="44.49581" lon="5.0469">
        <ele>466.15</ele>
        <time>2021-06-10T12:54:46Z</time>
      </trkpt>
      <trkpt lat="44.49578" lon="5.04708">
        <ele>464.51</ele>
        <time>2021-06-10T12:55:04Z</time>
      </trkpt>
      <trkpt lat="44.49574" lon="5.04712">
        <ele>464.58</ele>
        <time>2021-06-10T12:55:45Z</time>
      </trkpt>
      <trkpt lat="44.49573" lon="5.04714">
        <ele>464.91</ele>
        <time>2021-06-10T12:56:46Z</time>
      </trkpt>
      <trkpt lat="44.49576" lon="5.04739">
        <ele>466.39</ele>
        <time>2021-06-10T12:57:12Z</time>
      </trkpt>
      <trkpt lat="44.49581" lon="5.04762">
        <ele>469.02</ele>
        <time>2021-06-10T12:57:38Z</time>
      </trkpt>
      <trkpt lat="44.49589" lon="5.04791">
        <ele>471.1</ele>
        <time>2021-06-10T12:58:05Z</time>
      </trkpt>
      <trkpt lat="44.4959" lon="5.04798">
        <ele>472.03</ele>
        <time>2021-06-10T12:58:23Z</time>
      </trkpt>
      <trkpt lat="44.49586" lon="5.04819">
        <ele>471.14</ele>
        <time>2021-06-10T12:58:53Z</time>
      </trkpt>
      <trkpt lat="44.49581" lon="5.0484">
        <ele>471.01</ele>
        <time>2021-06-10T12:59:12Z</time>
      </trkpt>
      <trkpt lat="44.49577" lon="5.04854">
        <ele>470.96</ele>
        <time>2021-06-10T12:59:29Z</time>
      </trkpt>
      <trkpt lat="44.49577" lon="5.04858">
        <ele>470.96</ele>
        <time>2021-06-10T12:59:32Z</time>
      </trkpt>
      <trkpt lat="44.4957" lon="5.0488">
        <ele>471.09</ele>
        <time>2021-06-10T12:59:49Z</time>
      </trkpt>
      <trkpt lat="44.49563" lon="5.04909">
        <ele>471.06</ele>
        <time>2021-06-10T13:00:10Z</time>
      </trkpt>
      <trkpt lat="44.49553" lon="5.04943">
        <ele>471.09</ele>
        <time>2021-06-10T13:00:31Z</time>
      </trkpt>
      <trkpt lat="44.49549" lon="5.04972">
        <ele>470.96</ele>
        <time>2021-06-10T13:00:50Z</time>
      </trkpt>
      <trkpt lat="44.49541" lon="5.04997">
        <ele>470.74</ele>
        <time>2021-06-10T13:01:09Z</time>
      </trkpt>
      <trkpt lat="44.49536" lon="5.05008">
        <ele>470</ele>
        <time>2021-06-10T13:01:33Z</time>
      </trkpt>
      <trkpt lat="44.49527" lon="5.05023">
        <ele>468.83</ele>
        <time>2021-06-10T13:01:52Z</time>
      </trkpt>
      <trkpt lat="44.49524" lon="5.05025">
        <ele>468.03</ele>
        <time>2021-06-10T13:02:12Z</time>
      </trkpt>
      <trkpt lat="44.49524" lon="5.05026">
        <ele>467.04</ele>
        <time>2021-06-10T13:03:11Z</time>
      </trkpt>
      <trkpt lat="44.49519" lon="5.05037">
        <ele>467.6</ele>
        <time>2021-06-10T13:03:42Z</time>
      </trkpt>
      <trkpt lat="44.4951" lon="5.05053">
        <ele>465.71</ele>
        <time>2021-06-10T13:04:01Z</time>
      </trkpt>
      <trkpt lat="44.49498" lon="5.05069">
        <ele>462.63</ele>
        <time>2021-06-10T13:04:21Z</time>
      </trkpt>
      <trkpt lat="44.49485" lon="5.05086">
        <ele>460.05</ele>
        <time>2021-06-10T13:04:42Z</time>
      </trkpt>
      <trkpt lat="44.49476" lon="5.05102">
        <ele>458.14</ele>
        <time>2021-06-10T13:05:00Z</time>
      </trkpt>
      <trkpt lat="44.49464" lon="5.05117">
        <ele>456.95</ele>
        <time>2021-06-10T13:05:22Z</time>
      </trkpt>
      <trkpt lat="44.49451" lon="5.0513">
        <ele>456.1</ele>
        <time>2021-06-10T13:05:41Z</time>
      </trkpt>
      <trkpt lat="44.49437" lon="5.05144">
        <ele>455.69</ele>
        <time>2021-06-10T13:05:59Z</time>
      </trkpt>
      <trkpt lat="44.49425" lon="5.05151">
        <ele>455.18</ele>
        <time>2021-06-10T13:06:16Z</time>
      </trkpt>
      <trkpt lat="44.49421" lon="5.05153">
        <ele>455.15</ele>
        <time>2021-06-10T13:06:20Z</time>
      </trkpt>
      <trkpt lat="44.49412" lon="5.05155">
        <ele>454.9</ele>
        <time>2021-06-10T13:06:29Z</time>
      </trkpt>
      <trkpt lat="44.494" lon="5.05156">
        <ele>453.62</ele>
        <time>2021-06-10T13:06:46Z</time>
      </trkpt>
      <trkpt lat="44.49382" lon="5.05156">
        <ele>452.63</ele>
        <time>2021-06-10T13:07:04Z</time>
      </trkpt>
      <trkpt lat="44.49361" lon="5.05157">
        <ele>450.98</ele>
        <time>2021-06-10T13:07:23Z</time>
      </trkpt>
      <trkpt lat="44.49341" lon="5.05157">
        <ele>449.73</ele>
        <time>2021-06-10T13:07:44Z</time>
      </trkpt>
      <trkpt lat="44.49324" lon="5.05158">
        <ele>447.95</ele>
        <time>2021-06-10T13:08:01Z</time>
      </trkpt>
      <trkpt lat="44.493" lon="5.05158">
        <ele>446.04</ele>
        <time>2021-06-10T13:08:23Z</time>
      </trkpt>
      <trkpt lat="44.49278" lon="5.05151">
        <ele>443.24</ele>
        <time>2021-06-10T13:08:44Z</time>
      </trkpt>
      <trkpt lat="44.49265" lon="5.05145">
        <ele>441.76</ele>
        <time>2021-06-10T13:09:02Z</time>
      </trkpt>
      <trkpt lat="44.49264" lon="5.05143">
        <ele>441.64</ele>
        <time>2021-06-10T13:09:05Z</time>
      </trkpt>
      <trkpt lat="44.49261" lon="5.05142">
        <ele>441.62</ele>
        <time>2021-06-10T13:09:07Z</time>
      </trkpt>
      <trkpt lat="44.49244" lon="5.05129">
        <ele>440.52</ele>
        <time>2021-06-10T13:09:27Z</time>
      </trkpt>
      <trkpt lat="44.49238" lon="5.0513">
        <ele>439.77</ele>
        <time>2021-06-10T13:09:44Z</time>
      </trkpt>
      <trkpt lat="44.4924" lon="5.05142">
        <ele>439.34</ele>
        <time>2021-06-10T13:09:56Z</time>
      </trkpt>
      <trkpt lat="44.49231" lon="5.05168">
        <ele>438.78</ele>
        <time>2021-06-10T13:10:18Z</time>
      </trkpt>
      <trkpt lat="44.49216" lon="5.05177">
        <ele>439.53</ele>
        <time>2021-06-10T13:10:35Z</time>
      </trkpt>
      <trkpt lat="44.49218" lon="5.05197">
        <ele>441.82</ele>
        <time>2021-06-10T13:10:52Z</time>
      </trkpt>
      <trkpt lat="44.49223" lon="5.05215">
        <ele>443.84</ele>
        <time>2021-06-10T13:11:08Z</time>
      </trkpt>
      <trkpt lat="44.49215" lon="5.05248">
        <ele>446.77</ele>
        <time>2021-06-10T13:11:32Z</time>
      </trkpt>
      <trkpt lat="44.49208" lon="5.05254">
        <ele>449.18</ele>
        <time>2021-06-10T13:11:57Z</time>
      </trkpt>
      <trkpt lat="44.49204" lon="5.05248">
        <ele>449.38</ele>
        <time>2021-06-10T13:12:32Z</time>
      </trkpt>
      <trkpt lat="44.49196" lon="5.05241">
        <ele>449.61</ele>
        <time>2021-06-10T13:12:53Z</time>
      </trkpt>
      <trkpt lat="44.49184" lon="5.05239">
        <ele>450.29</ele>
        <time>2021-06-10T13:13:14Z</time>
      </trkpt>
      <trkpt lat="44.49181" lon="5.05253">
        <ele>450.38</ele>
        <time>2021-06-10T13:13:37Z</time>
      </trkpt>
      <trkpt lat="44.49178" lon="5.05263">
        <ele>451.25</ele>
        <time>2021-06-10T13:14:06Z</time>
      </trkpt>
      <trkpt lat="44.49185" lon="5.05244">
        <ele>450.74</ele>
        <time>2021-06-10T13:14:24Z</time>
      </trkpt>
      <trkpt lat="44.49194" lon="5.05247">
        <ele>450.48</ele>
        <time>2021-06-10T13:14:43Z</time>
      </trkpt>
      <trkpt lat="44.49193" lon="5.05242">
        <ele>450.7</ele>
        <time>2021-06-10T13:14:58Z</time>
      </trkpt>
      <trkpt lat="44.49202" lon="5.05246">
        <ele>450.02</ele>
        <time>2021-06-10T13:15:21Z</time>
      </trkpt>
      <trkpt lat="44.49199" lon="5.05247">
        <ele>449.46</ele>
        <time>2021-06-10T13:16:04Z</time>
      </trkpt>
      <trkpt lat="44.49201" lon="5.05249">
        <ele>449.53</ele>
        <time>2021-06-10T13:16:35Z</time>
      </trkpt>
      <trkpt lat="44.49208" lon="5.05256">
        <ele>450.08</ele>
        <time>2021-06-10T13:16:56Z</time>
      </trkpt>
      <trkpt lat="44.49213" lon="5.05255">
        <ele>450.01</ele>
        <time>2021-06-10T13:17:14Z</time>
      </trkpt>
      <trkpt lat="44.49216" lon="5.05246">
        <ele>448.11</ele>
        <time>2021-06-10T13:17:37Z</time>
      </trkpt>
      <trkpt lat="44.49217" lon="5.05234">
        <ele>447.27</ele>
        <time>2021-06-10T13:17:47Z</time>
      </trkpt>
      <trkpt lat="44.49218" lon="5.0522">
        <ele>444.58</ele>
        <time>2021-06-10T13:18:06Z</time>
      </trkpt>
      <trkpt lat="44.49214" lon="5.052">
        <ele>443.65</ele>
        <time>2021-06-10T13:18:22Z</time>
      </trkpt>
      <trkpt lat="44.49214" lon="5.05177">
        <ele>440.83</ele>
        <time>2021-06-10T13:18:42Z</time>
      </trkpt>
      <trkpt lat="44.49218" lon="5.05175">
        <ele>440.17</ele>
        <time>2021-06-10T13:18:47Z</time>
      </trkpt>
      <trkpt lat="44.49233" lon="5.05167">
        <ele>438.12</ele>
        <time>2021-06-10T13:19:00Z</time>
      </trkpt>
      <trkpt lat="44.49238" lon="5.05153">
        <ele>437.01</ele>
        <time>2021-06-10T13:19:11Z</time>
      </trkpt>
      <trkpt lat="44.49239" lon="5.0515">
        <ele>436.99</ele>
        <time>2021-06-10T13:19:14Z</time>
      </trkpt>
      <trkpt lat="44.49236" lon="5.05116">
        <ele>437.17</ele>
        <time>2021-06-10T13:19:38Z</time>
      </trkpt>
      <trkpt lat="44.49234" lon="5.05083">
        <ele>434.78</ele>
        <time>2021-06-10T13:20:00Z</time>
      </trkpt>
      <trkpt lat="44.49232" lon="5.0505">
        <ele>431.87</ele>
        <time>2021-06-10T13:20:24Z</time>
      </trkpt>
      <trkpt lat="44.4923" lon="5.05017">
        <ele>429.52</ele>
        <time>2021-06-10T13:20:50Z</time>
      </trkpt>
      <trkpt lat="44.49228" lon="5.04986">
        <ele>426.82</ele>
        <time>2021-06-10T13:21:12Z</time>
      </trkpt>
      <trkpt lat="44.49225" lon="5.0496">
        <ele>424.01</ele>
        <time>2021-06-10T13:21:29Z</time>
      </trkpt>
      <trkpt lat="44.49224" lon="5.04938">
        <ele>422.2</ele>
        <time>2021-06-10T13:21:45Z</time>
      </trkpt>
      <trkpt lat="44.49223" lon="5.04936">
        <ele>422.11</ele>
        <time>2021-06-10T13:21:47Z</time>
      </trkpt>
      <trkpt lat="44.49223" lon="5.04933">
        <ele>421.99</ele>
        <time>2021-06-10T13:21:49Z</time>
      </trkpt>
      <trkpt lat="44.49222" lon="5.04901">
        <ele>421.42</ele>
        <time>2021-06-10T13:22:08Z</time>
      </trkpt>
      <trkpt lat="44.49222" lon="5.04895">
        <ele>421.43</ele>
        <time>2021-06-10T13:22:12Z</time>
      </trkpt>
      <trkpt lat="44.49217" lon="5.04854">
        <ele>423.12</ele>
        <time>2021-06-10T13:22:34Z</time>
      </trkpt>
      <trkpt lat="44.49215" lon="5.04831">
        <ele>424.05</ele>
        <time>2021-06-10T13:22:49Z</time>
      </trkpt>
      <trkpt lat="44.49215" lon="5.04827">
        <ele>424.08</ele>
        <time>2021-06-10T13:22:52Z</time>
      </trkpt>
      <trkpt lat="44.49216" lon="5.04813">
        <ele>424.41</ele>
        <time>2021-06-10T13:23:13Z</time>
      </trkpt>
      <trkpt lat="44.49215" lon="5.04812">
        <ele>424.43</ele>
        <time>2021-06-10T13:23:14Z</time>
      </trkpt>
      <trkpt lat="44.49207" lon="5.04777">
        <ele>424.52</ele>
        <time>2021-06-10T13:23:37Z</time>
      </trkpt>
      <trkpt lat="44.49202" lon="5.04756">
        <ele>424.53</ele>
        <time>2021-06-10T13:23:58Z</time>
      </trkpt>
      <trkpt lat="44.492" lon="5.04749">
        <ele>424.48</ele>
        <time>2021-06-10T13:24:03Z</time>
      </trkpt>
      <trkpt lat="44.4919" lon="5.04734">
        <ele>424.66</ele>
        <time>2021-06-10T13:24:23Z</time>
      </trkpt>
      <trkpt lat="44.49184" lon="5.04743">
        <ele>425.19</ele>
        <time>2021-06-10T13:25:03Z</time>
      </trkpt>
      <trkpt lat="44.49168" lon="5.0477">
        <ele>426.6</ele>
        <time>2021-06-10T13:25:26Z</time>
      </trkpt>
      <trkpt lat="44.49155" lon="5.04798">
        <ele>428.39</ele>
        <time>2021-06-10T13:25:48Z</time>
      </trkpt>
      <trkpt lat="44.49152" lon="5.04807">
        <ele>429.21</ele>
        <time>2021-06-10T13:25:57Z</time>
      </trkpt>
      <trkpt lat="44.49147" lon="5.04835">
        <ele>430.96</ele>
        <time>2021-06-10T13:26:18Z</time>
      </trkpt>
      <trkpt lat="44.49144" lon="5.04857">
        <ele>431.1</ele>
        <time>2021-06-10T13:26:33Z</time>
      </trkpt>
      <trkpt lat="44.4914" lon="5.04882">
        <ele>430.68</ele>
        <time>2021-06-10T13:26:50Z</time>
      </trkpt>
      <trkpt lat="44.49131" lon="5.04913">
        <ele>431.03</ele>
        <time>2021-06-10T13:27:08Z</time>
      </trkpt>
      <trkpt lat="44.49118" lon="5.04941">
        <ele>430.68</ele>
        <time>2021-06-10T13:27:28Z</time>
      </trkpt>
      <trkpt lat="44.49105" lon="5.04967">
        <ele>430.79</ele>
        <time>2021-06-10T13:27:45Z</time>
      </trkpt>
      <trkpt lat="44.49091" lon="5.04994">
        <ele>431.32</ele>
        <time>2021-06-10T13:28:05Z</time>
      </trkpt>
      <trkpt lat="44.49075" lon="5.05014">
        <ele>432.44</ele>
        <time>2021-06-10T13:28:24Z</time>
      </trkpt>
      <trkpt lat="44.49061" lon="5.05027">
        <ele>432.95</ele>
        <time>2021-06-10T13:28:41Z</time>
      </trkpt>
      <trkpt lat="44.4905" lon="5.05038">
        <ele>434.1</ele>
        <time>2021-06-10T13:28:55Z</time>
      </trkpt>
      <trkpt lat="44.49041" lon="5.05049">
        <ele>434.69</ele>
        <time>2021-06-10T13:29:07Z</time>
      </trkpt>
      <trkpt lat="44.49031" lon="5.05075">
        <ele>436.04</ele>
        <time>2021-06-10T13:29:24Z</time>
      </trkpt>
      <trkpt lat="44.49029" lon="5.05081">
        <ele>436.19</ele>
        <time>2021-06-10T13:29:29Z</time>
      </trkpt>
      <trkpt lat="44.49021" lon="5.05104">
        <ele>436.87</ele>
        <time>2021-06-10T13:29:46Z</time>
      </trkpt>
      <trkpt lat="44.49019" lon="5.0511">
        <ele>437.04</ele>
        <time>2021-06-10T13:29:49Z</time>
      </trkpt>
      <trkpt lat="44.49009" lon="5.05134">
        <ele>437.98</ele>
        <time>2021-06-10T13:30:04Z</time>
      </trkpt>
      <trkpt lat="44.48996" lon="5.05168">
        <ele>438.85</ele>
        <time>2021-06-10T13:30:27Z</time>
      </trkpt>
      <trkpt lat="44.48989" lon="5.05207">
        <ele>439.02</ele>
        <time>2021-06-10T13:30:50Z</time>
      </trkpt>
      <trkpt lat="44.48983" lon="5.0524">
        <ele>439.7</ele>
        <time>2021-06-10T13:31:10Z</time>
      </trkpt>
      <trkpt lat="44.48978" lon="5.05256">
        <ele>439.86</ele>
        <time>2021-06-10T13:31:22Z</time>
      </trkpt>
      <trkpt lat="44.48976" lon="5.05277">
        <ele>439.92</ele>
        <time>2021-06-10T13:31:37Z</time>
      </trkpt>
      <trkpt lat="44.48973" lon="5.05284">
        <ele>440.13</ele>
        <time>2021-06-10T13:31:42Z</time>
      </trkpt>
      <trkpt lat="44.48972" lon="5.05291">
        <ele>440.47</ele>
        <time>2021-06-10T13:31:46Z</time>
      </trkpt>
      <trkpt lat="44.48966" lon="5.05325">
        <ele>441.51</ele>
        <time>2021-06-10T13:32:07Z</time>
      </trkpt>
      <trkpt lat="44.48959" lon="5.05366">
        <ele>442.86</ele>
        <time>2021-06-10T13:32:33Z</time>
      </trkpt>
      <trkpt lat="44.48955" lon="5.05402">
        <ele>444.17</ele>
        <time>2021-06-10T13:32:56Z</time>
      </trkpt>
      <trkpt lat="44.48952" lon="5.05443">
        <ele>445.27</ele>
        <time>2021-06-10T13:33:22Z</time>
      </trkpt>
      <trkpt lat="44.48949" lon="5.05478">
        <ele>446.87</ele>
        <time>2021-06-10T13:33:44Z</time>
      </trkpt>
      <trkpt lat="44.48948" lon="5.05486">
        <ele>447.44</ele>
        <time>2021-06-10T13:33:49Z</time>
      </trkpt>
      <trkpt lat="44.48945" lon="5.05515">
        <ele>449.35</ele>
        <time>2021-06-10T13:34:09Z</time>
      </trkpt>
      <trkpt lat="44.48944" lon="5.05532">
        <ele>450.43</ele>
        <time>2021-06-10T13:34:22Z</time>
      </trkpt>
      <trkpt lat="44.48945" lon="5.05547">
        <ele>452.19</ele>
        <time>2021-06-10T13:34:37Z</time>
      </trkpt>
      <trkpt lat="44.48943" lon="5.05551">
        <ele>452.38</ele>
        <time>2021-06-10T13:35:33Z</time>
      </trkpt>
      <trkpt lat="44.48945" lon="5.05549">
        <ele>451.79</ele>
        <time>2021-06-10T13:35:59Z</time>
      </trkpt>
      <trkpt lat="44.48946" lon="5.05547">
        <ele>451.85</ele>
        <time>2021-06-10T13:36:36Z</time>
      </trkpt>
      <trkpt lat="44.48943" lon="5.05551">
        <ele>452.21</ele>
        <time>2021-06-10T13:37:14Z</time>
      </trkpt>
      <trkpt lat="44.48938" lon="5.05564">
        <ele>452.24</ele>
        <time>2021-06-10T13:37:24Z</time>
      </trkpt>
      <trkpt lat="44.48918" lon="5.0557">
        <ele>453.6</ele>
        <time>2021-06-10T13:37:45Z</time>
      </trkpt>
      <trkpt lat="44.48899" lon="5.0557">
        <ele>455.32</ele>
        <time>2021-06-10T13:38:04Z</time>
      </trkpt>
      <trkpt lat="44.48891" lon="5.05551">
        <ele>456.39</ele>
        <time>2021-06-10T13:38:22Z</time>
      </trkpt>
      <trkpt lat="44.48886" lon="5.05528">
        <ele>455.41</ele>
        <time>2021-06-10T13:38:40Z</time>
      </trkpt>
      <trkpt lat="44.48879" lon="5.05496">
        <ele>454.94</ele>
        <time>2021-06-10T13:39:05Z</time>
      </trkpt>
      <trkpt lat="44.48849" lon="5.05486">
        <ele>457.41</ele>
        <time>2021-06-10T13:39:36Z</time>
      </trkpt>
      <trkpt lat="44.48836" lon="5.05484">
        <ele>460.6</ele>
        <time>2021-06-10T13:39:59Z</time>
      </trkpt>
      <trkpt lat="44.48828" lon="5.05481">
        <ele>463.66</ele>
        <time>2021-06-10T13:40:15Z</time>
      </trkpt>
      <trkpt lat="44.48818" lon="5.05477">
        <ele>466.74</ele>
        <time>2021-06-10T13:40:37Z</time>
      </trkpt>
      <trkpt lat="44.48807" lon="5.05476">
        <ele>469.45</ele>
        <time>2021-06-10T13:41:03Z</time>
      </trkpt>
      <trkpt lat="44.48799" lon="5.05472">
        <ele>472.46</ele>
        <time>2021-06-10T13:41:24Z</time>
      </trkpt>
      <trkpt lat="44.48791" lon="5.05461">
        <ele>475.47</ele>
        <time>2021-06-10T13:41:44Z</time>
      </trkpt>
      <trkpt lat="44.48786" lon="5.05446">
        <ele>478.51</ele>
        <time>2021-06-10T13:42:09Z</time>
      </trkpt>
      <trkpt lat="44.48781" lon="5.05429">
        <ele>480.17</ele>
        <time>2021-06-10T13:42:50Z</time>
      </trkpt>
      <trkpt lat="44.48774" lon="5.05413">
        <ele>483.19</ele>
        <time>2021-06-10T13:43:14Z</time>
      </trkpt>
      <trkpt lat="44.48764" lon="5.05402">
        <ele>486.27</ele>
        <time>2021-06-10T13:43:38Z</time>
      </trkpt>
      <trkpt lat="44.48759" lon="5.05396">
        <ele>488.16</ele>
        <time>2021-06-10T13:43:53Z</time>
      </trkpt>
      <trkpt lat="44.48748" lon="5.05385">
        <ele>491.43</ele>
        <time>2021-06-10T13:44:18Z</time>
      </trkpt>
      <trkpt lat="44.48736" lon="5.05379">
        <ele>494.44</ele>
        <time>2021-06-10T13:44:42Z</time>
      </trkpt>
      <trkpt lat="44.48731" lon="5.05367">
        <ele>497.49</ele>
        <time>2021-06-10T13:45:05Z</time>
      </trkpt>
      <trkpt lat="44.4873" lon="5.05352">
        <ele>500.5</ele>
        <time>2021-06-10T13:45:28Z</time>
      </trkpt>
      <trkpt lat="44.48725" lon="5.05335">
        <ele>503.58</ele>
        <time>2021-06-10T13:46:02Z</time>
      </trkpt>
      <trkpt lat="44.4872" lon="5.05322">
        <ele>506.64</ele>
        <time>2021-06-10T13:46:27Z</time>
      </trkpt>
      <trkpt lat="44.48708" lon="5.05313">
        <ele>509.66</ele>
        <time>2021-06-10T13:46:52Z</time>
      </trkpt>
      <trkpt lat="44.487" lon="5.05302">
        <ele>512.76</ele>
        <time>2021-06-10T13:47:14Z</time>
      </trkpt>
      <trkpt lat="44.4869" lon="5.05297">
        <ele>515.86</ele>
        <time>2021-06-10T13:47:39Z</time>
      </trkpt>
      <trkpt lat="44.48685" lon="5.0529">
        <ele>517.97</ele>
        <time>2021-06-10T13:48:18Z</time>
      </trkpt>
      <trkpt lat="44.48676" lon="5.05285">
        <ele>519.21</ele>
        <time>2021-06-10T13:48:42Z</time>
      </trkpt>
      <trkpt lat="44.48668" lon="5.05282">
        <ele>522.17</ele>
        <time>2021-06-10T13:49:06Z</time>
      </trkpt>
      <trkpt lat="44.48649" lon="5.05272">
        <ele>525.3</ele>
        <time>2021-06-10T13:49:34Z</time>
      </trkpt>
      <trkpt lat="44.48634" lon="5.05255">
        <ele>525.98</ele>
        <time>2021-06-10T13:49:53Z</time>
      </trkpt>
      <trkpt lat="44.48628" lon="5.05244">
        <ele>525.87</ele>
        <time>2021-06-10T13:50:03Z</time>
      </trkpt>
      <trkpt lat="44.48614" lon="5.05228">
        <ele>525.5</ele>
        <time>2021-06-10T13:50:24Z</time>
      </trkpt>
      <trkpt lat="44.48604" lon="5.0521">
        <ele>525.14</ele>
        <time>2021-06-10T13:50:40Z</time>
      </trkpt>
      <trkpt lat="44.48592" lon="5.05197">
        <ele>525.87</ele>
        <time>2021-06-10T13:50:57Z</time>
      </trkpt>
      <trkpt lat="44.48583" lon="5.05176">
        <ele>526.9</ele>
        <time>2021-06-10T13:51:18Z</time>
      </trkpt>
      <trkpt lat="44.48572" lon="5.05158">
        <ele>528.47</ele>
        <time>2021-06-10T13:51:36Z</time>
      </trkpt>
      <trkpt lat="44.48569" lon="5.05152">
        <ele>530.12</ele>
        <time>2021-06-10T13:52:02Z</time>
      </trkpt>
      <trkpt lat="44.48567" lon="5.05154">
        <ele>530.54</ele>
        <time>2021-06-10T13:53:07Z</time>
      </trkpt>
      <trkpt lat="44.48565" lon="5.05157">
        <ele>530.15</ele>
        <time>2021-06-10T13:54:11Z</time>
      </trkpt>
      <trkpt lat="44.48557" lon="5.05147">
        <ele>530.84</ele>
        <time>2021-06-10T13:54:44Z</time>
      </trkpt>
      <trkpt lat="44.48543" lon="5.05139">
        <ele>532.1</ele>
        <time>2021-06-10T13:55:02Z</time>
      </trkpt>
      <trkpt lat="44.48525" lon="5.05129">
        <ele>533.36</ele>
        <time>2021-06-10T13:55:22Z</time>
      </trkpt>
      <trkpt lat="44.4852" lon="5.0513">
        <ele>533.84</ele>
        <time>2021-06-10T13:55:27Z</time>
      </trkpt>
      <trkpt lat="44.48501" lon="5.05135">
        <ele>536.18</ele>
        <time>2021-06-10T13:55:47Z</time>
      </trkpt>
      <trkpt lat="44.48483" lon="5.05135">
        <ele>538.49</ele>
        <time>2021-06-10T13:56:07Z</time>
      </trkpt>
      <trkpt lat="44.48466" lon="5.05131">
        <ele>541.55</ele>
        <time>2021-06-10T13:56:27Z</time>
      </trkpt>
      <trkpt lat="44.48441" lon="5.05124">
        <ele>543.61</ele>
        <time>2021-06-10T13:56:55Z</time>
      </trkpt>
      <trkpt lat="44.48411" lon="5.05117">
        <ele>544.43</ele>
        <time>2021-06-10T13:57:25Z</time>
      </trkpt>
      <trkpt lat="44.48386" lon="5.05118">
        <ele>544.85</ele>
        <time>2021-06-10T13:57:49Z</time>
      </trkpt>
      <trkpt lat="44.48366" lon="5.05124">
        <ele>546.02</ele>
        <time>2021-06-10T13:58:09Z</time>
      </trkpt>
      <trkpt lat="44.48345" lon="5.05131">
        <ele>546.14</ele>
        <time>2021-06-10T13:58:30Z</time>
      </trkpt>
      <trkpt lat="44.48322" lon="5.0514">
        <ele>547.21</ele>
        <time>2021-06-10T13:58:55Z</time>
      </trkpt>
      <trkpt lat="44.48308" lon="5.0515">
        <ele>548.72</ele>
        <time>2021-06-10T13:59:13Z</time>
      </trkpt>
      <trkpt lat="44.48291" lon="5.05166">
        <ele>551.8</ele>
        <time>2021-06-10T13:59:38Z</time>
      </trkpt>
      <trkpt lat="44.48277" lon="5.05183">
        <ele>554.27</ele>
        <time>2021-06-10T13:59:59Z</time>
      </trkpt>
      <trkpt lat="44.48265" lon="5.05203">
        <ele>557.05</ele>
        <time>2021-06-10T14:00:21Z</time>
      </trkpt>
      <trkpt lat="44.4826" lon="5.05216">
        <ele>559.53</ele>
        <time>2021-06-10T14:00:40Z</time>
      </trkpt>
      <trkpt lat="44.48255" lon="5.05221">
        <ele>559.86</ele>
        <time>2021-06-10T14:01:03Z</time>
      </trkpt>
      <trkpt lat="44.48247" lon="5.05218">
        <ele>559.77</ele>
        <time>2021-06-10T14:02:13Z</time>
      </trkpt>
      <trkpt lat="44.48228" lon="5.05218">
        <ele>556.9</ele>
        <time>2021-06-10T14:02:34Z</time>
      </trkpt>
      <trkpt lat="44.48214" lon="5.0521">
        <ele>553.86</ele>
        <time>2021-06-10T14:02:55Z</time>
      </trkpt>
      <trkpt lat="44.48203" lon="5.05195">
        <ele>550.78</ele>
        <time>2021-06-10T14:03:15Z</time>
      </trkpt>
      <trkpt lat="44.48196" lon="5.05179">
        <ele>547.75</ele>
        <time>2021-06-10T14:03:33Z</time>
      </trkpt>
      <trkpt lat="44.48191" lon="5.05162">
        <ele>544.69</ele>
        <time>2021-06-10T14:03:50Z</time>
      </trkpt>
      <trkpt lat="44.48183" lon="5.05149">
        <ele>541.87</ele>
        <time>2021-06-10T14:04:06Z</time>
      </trkpt>
      <trkpt lat="44.48173" lon="5.05138">
        <ele>538.86</ele>
        <time>2021-06-10T14:04:22Z</time>
      </trkpt>
      <trkpt lat="44.48166" lon="5.05123">
        <ele>535.85</ele>
        <time>2021-06-10T14:04:38Z</time>
      </trkpt>
      <trkpt lat="44.48159" lon="5.0511">
        <ele>532.7</ele>
        <time>2021-06-10T14:04:55Z</time>
      </trkpt>
      <trkpt lat="44.48152" lon="5.05094">
        <ele>529.69</ele>
        <time>2021-06-10T14:05:13Z</time>
      </trkpt>
      <trkpt lat="44.48143" lon="5.05081">
        <ele>526.65</ele>
        <time>2021-06-10T14:05:33Z</time>
      </trkpt>
      <trkpt lat="44.48137" lon="5.05069">
        <ele>524.45</ele>
        <time>2021-06-10T14:05:52Z</time>
      </trkpt>
      <trkpt lat="44.48129" lon="5.05057">
        <ele>522.23</ele>
        <time>2021-06-10T14:06:16Z</time>
      </trkpt>
      <trkpt lat="44.48125" lon="5.05051">
        <ele>520.32</ele>
        <time>2021-06-10T14:06:36Z</time>
      </trkpt>
      <trkpt lat="44.48128" lon="5.05052">
        <ele>520.59</ele>
        <time>2021-06-10T14:07:38Z</time>
      </trkpt>
      <trkpt lat="44.4812" lon="5.05044">
        <ele>519.38</ele>
        <time>2021-06-10T14:08:10Z</time>
      </trkpt>
      <trkpt lat="44.4811" lon="5.05033">
        <ele>516.38</ele>
        <time>2021-06-10T14:08:28Z</time>
      </trkpt>
      <trkpt lat="44.481" lon="5.05028">
        <ele>513.34</ele>
        <time>2021-06-10T14:08:43Z</time>
      </trkpt>
      <trkpt lat="44.48092" lon="5.05017">
        <ele>510.3</ele>
        <time>2021-06-10T14:09:01Z</time>
      </trkpt>
      <trkpt lat="44.48083" lon="5.05009">
        <ele>507.18</ele>
        <time>2021-06-10T14:09:17Z</time>
      </trkpt>
      <trkpt lat="44.48072" lon="5.05001">
        <ele>504.05</ele>
        <time>2021-06-10T14:09:35Z</time>
      </trkpt>
      <trkpt lat="44.48065" lon="5.04998">
        <ele>500.92</ele>
        <time>2021-06-10T14:09:48Z</time>
      </trkpt>
      <trkpt lat="44.48059" lon="5.04987">
        <ele>497.82</ele>
        <time>2021-06-10T14:10:03Z</time>
      </trkpt>
      <trkpt lat="44.48051" lon="5.04977">
        <ele>494.82</ele>
        <time>2021-06-10T14:10:19Z</time>
      </trkpt>
      <trkpt lat="44.48046" lon="5.04967">
        <ele>491.81</ele>
        <time>2021-06-10T14:10:32Z</time>
      </trkpt>
      <trkpt lat="44.48038" lon="5.04963">
        <ele>488.7</ele>
        <time>2021-06-10T14:10:46Z</time>
      </trkpt>
      <trkpt lat="44.48028" lon="5.04958">
        <ele>485.59</ele>
        <time>2021-06-10T14:11:05Z</time>
      </trkpt>
      <trkpt lat="44.48023" lon="5.04952">
        <ele>482.36</ele>
        <time>2021-06-10T14:11:20Z</time>
      </trkpt>
      <trkpt lat="44.48013" lon="5.04943">
        <ele>479.44</ele>
        <time>2021-06-10T14:11:48Z</time>
      </trkpt>
      <trkpt lat="44.48004" lon="5.04945">
        <ele>476.31</ele>
        <time>2021-06-10T14:12:07Z</time>
      </trkpt>
      <trkpt lat="44.4799" lon="5.04951">
        <ele>473.18</ele>
        <time>2021-06-10T14:12:28Z</time>
      </trkpt>
      <trkpt lat="44.47976" lon="5.04946">
        <ele>470.12</ele>
        <time>2021-06-10T14:12:44Z</time>
      </trkpt>
      <trkpt lat="44.47964" lon="5.04939">
        <ele>467.09</ele>
        <time>2021-06-10T14:13:00Z</time>
      </trkpt>
      <trkpt lat="44.47958" lon="5.04926">
        <ele>465.06</ele>
        <time>2021-06-10T14:13:30Z</time>
      </trkpt>
      <trkpt lat="44.47947" lon="5.04909">
        <ele>462.38</ele>
        <time>2021-06-10T14:13:54Z</time>
      </trkpt>
      <trkpt lat="44.4794" lon="5.04901">
        <ele>460.68</ele>
        <time>2021-06-10T14:14:21Z</time>
      </trkpt>
      <trkpt lat="44.47929" lon="5.04889">
        <ele>458.8</ele>
        <time>2021-06-10T14:14:41Z</time>
      </trkpt>
      <trkpt lat="44.47913" lon="5.04874">
        <ele>455.75</ele>
        <time>2021-06-10T14:15:10Z</time>
      </trkpt>
      <trkpt lat="44.479" lon="5.04861">
        <ele>454.07</ele>
        <time>2021-06-10T14:15:38Z</time>
      </trkpt>
      <trkpt lat="44.47885" lon="5.0485">
        <ele>452.69</ele>
        <time>2021-06-10T14:16:00Z</time>
      </trkpt>
      <trkpt lat="44.47883" lon="5.04833">
        <ele>449.64</ele>
        <time>2021-06-10T14:16:25Z</time>
      </trkpt>
      <trkpt lat="44.4789" lon="5.04827">
        <ele>448.57</ele>
        <time>2021-06-10T14:17:03Z</time>
      </trkpt>
      <trkpt lat="44.47897" lon="5.04822">
        <ele>448.19</ele>
        <time>2021-06-10T14:17:10Z</time>
      </trkpt>
      <trkpt lat="44.47917" lon="5.04801">
        <ele>447.81</ele>
        <time>2021-06-10T14:17:34Z</time>
      </trkpt>
      <trkpt lat="44.47921" lon="5.048">
        <ele>447.56</ele>
        <time>2021-06-10T14:17:52Z</time>
      </trkpt>
      <trkpt lat="44.47928" lon="5.04789">
        <ele>447.77</ele>
        <time>2021-06-10T14:18:38Z</time>
      </trkpt>
      <trkpt lat="44.47939" lon="5.04776">
        <ele>447.49</ele>
        <time>2021-06-10T14:18:51Z</time>
      </trkpt>
      <trkpt lat="44.47951" lon="5.04747">
        <ele>445.04</ele>
        <time>2021-06-10T14:19:12Z</time>
      </trkpt>
      <trkpt lat="44.47959" lon="5.04724">
        <ele>443.37</ele>
        <time>2021-06-10T14:19:28Z</time>
      </trkpt>
      <trkpt lat="44.47967" lon="5.047">
        <ele>441.08</ele>
        <time>2021-06-10T14:19:48Z</time>
      </trkpt>
      <trkpt lat="44.47974" lon="5.04668">
        <ele>439.64</ele>
        <time>2021-06-10T14:20:08Z</time>
      </trkpt>
      <trkpt lat="44.47975" lon="5.04639">
        <ele>438.42</ele>
        <time>2021-06-10T14:20:26Z</time>
      </trkpt>
      <trkpt lat="44.47975" lon="5.04614">
        <ele>437.88</ele>
        <time>2021-06-10T14:20:40Z</time>
      </trkpt>
      <trkpt lat="44.47974" lon="5.04595">
        <ele>437.39</ele>
        <time>2021-06-10T14:20:51Z</time>
      </trkpt>
      <trkpt lat="44.47965" lon="5.04559">
        <ele>435.49</ele>
        <time>2021-06-10T14:21:13Z</time>
      </trkpt>
      <trkpt lat="44.4796" lon="5.04518">
        <ele>434.44</ele>
        <time>2021-06-10T14:21:36Z</time>
      </trkpt>
      <trkpt lat="44.47955" lon="5.04485">
        <ele>433.53</ele>
        <time>2021-06-10T14:21:56Z</time>
      </trkpt>
      <trkpt lat="44.47951" lon="5.04444">
        <ele>432.87</ele>
        <time>2021-06-10T14:22:20Z</time>
      </trkpt>
      <trkpt lat="44.47947" lon="5.04408">
        <ele>432.64</ele>
        <time>2021-06-10T14:22:42Z</time>
      </trkpt>
      <trkpt lat="44.47944" lon="5.04382">
        <ele>432.45</ele>
        <time>2021-06-10T14:23:01Z</time>
      </trkpt>
      <trkpt lat="44.47931" lon="5.04348">
        <ele>432.21</ele>
        <time>2021-06-10T14:23:28Z</time>
      </trkpt>
      <trkpt lat="44.47932" lon="5.04328">
        <ele>431.48</ele>
        <time>2021-06-10T14:23:53Z</time>
      </trkpt>
      <trkpt lat="44.4793" lon="5.04323">
        <ele>430.91</ele>
        <time>2021-06-10T14:24:44Z</time>
      </trkpt>
      <trkpt lat="44.47924" lon="5.04313">
        <ele>430.89</ele>
        <time>2021-06-10T14:25:10Z</time>
      </trkpt>
      <trkpt lat="44.47913" lon="5.04281">
        <ele>431.34</ele>
        <time>2021-06-10T14:25:35Z</time>
      </trkpt>
      <trkpt lat="44.47902" lon="5.04257">
        <ele>432.08</ele>
        <time>2021-06-10T14:25:56Z</time>
      </trkpt>
      <trkpt lat="44.47885" lon="5.04225">
        <ele>432.29</ele>
        <time>2021-06-10T14:26:21Z</time>
      </trkpt>
      <trkpt lat="44.4787" lon="5.04194">
        <ele>430.68</ele>
        <time>2021-06-10T14:26:45Z</time>
      </trkpt>
      <trkpt lat="44.47869" lon="5.04191">
        <ele>430.55</ele>
        <time>2021-06-10T14:26:47Z</time>
      </trkpt>
      <trkpt lat="44.47851" lon="5.04161">
        <ele>429.48</ele>
        <time>2021-06-10T14:27:09Z</time>
      </trkpt>
      <trkpt lat="44.47824" lon="5.04146">
        <ele>427.83</ele>
        <time>2021-06-10T14:27:31Z</time>
      </trkpt>
      <trkpt lat="44.47818" lon="5.04143">
        <ele>427.5</ele>
        <time>2021-06-10T14:27:37Z</time>
      </trkpt>
      <trkpt lat="44.47796" lon="5.0413">
        <ele>425.33</ele>
        <time>2021-06-10T14:27:57Z</time>
      </trkpt>
      <trkpt lat="44.47776" lon="5.04113">
        <ele>424.07</ele>
        <time>2021-06-10T14:28:16Z</time>
      </trkpt>
      <trkpt lat="44.47748" lon="5.04098">
        <ele>422.4</ele>
        <time>2021-06-10T14:28:40Z</time>
      </trkpt>
      <trkpt lat="44.47734" lon="5.0408">
        <ele>420.1</ele>
        <time>2021-06-10T14:28:56Z</time>
      </trkpt>
      <trkpt lat="44.47725" lon="5.04046">
        <ele>418.18</ele>
        <time>2021-06-10T14:29:21Z</time>
      </trkpt>
      <trkpt lat="44.4772" lon="5.0401">
        <ele>415.7</ele>
        <time>2021-06-10T14:29:44Z</time>
      </trkpt>
      <trkpt lat="44.47719" lon="5.03987">
        <ele>413.48</ele>
        <time>2021-06-10T14:29:59Z</time>
      </trkpt>
      <trkpt lat="44.47727" lon="5.0395">
        <ele>410.41</ele>
        <time>2021-06-10T14:30:28Z</time>
      </trkpt>
      <trkpt lat="44.47735" lon="5.0393">
        <ele>408.57</ele>
        <time>2021-06-10T14:30:50Z</time>
      </trkpt>
      <trkpt lat="44.47744" lon="5.03909">
        <ele>406.66</ele>
        <time>2021-06-10T14:31:06Z</time>
      </trkpt>
      <trkpt lat="44.47761" lon="5.03854">
        <ele>403.86</ele>
        <time>2021-06-10T14:31:38Z</time>
      </trkpt>
      <trkpt lat="44.47768" lon="5.03829">
        <ele>403.26</ele>
        <time>2021-06-10T14:31:54Z</time>
      </trkpt>
      <trkpt lat="44.47777" lon="5.03814">
        <ele>402.11</ele>
        <time>2021-06-10T14:32:13Z</time>
      </trkpt>
      <trkpt lat="44.47804" lon="5.03793">
        <ele>400.74</ele>
        <time>2021-06-10T14:32:40Z</time>
      </trkpt>
      <trkpt lat="44.47832" lon="5.03759">
        <ele>399.06</ele>
        <time>2021-06-10T14:33:12Z</time>
      </trkpt>
      <trkpt lat="44.4785" lon="5.03726">
        <ele>396.93</ele>
        <time>2021-06-10T14:33:39Z</time>
      </trkpt>
      <trkpt lat="44.47868" lon="5.03697">
        <ele>395.77</ele>
        <time>2021-06-10T14:34:02Z</time>
      </trkpt>
      <trkpt lat="44.47887" lon="5.03662">
        <ele>394.03</ele>
        <time>2021-06-10T14:34:30Z</time>
      </trkpt>
      <trkpt lat="44.4789" lon="5.03646">
        <ele>393.81</ele>
        <time>2021-06-10T14:34:39Z</time>
      </trkpt>
      <trkpt lat="44.47892" lon="5.03607">
        <ele>392.96</ele>
        <time>2021-06-10T14:35:00Z</time>
      </trkpt>
      <trkpt lat="44.47888" lon="5.03573">
        <ele>391.12</ele>
        <time>2021-06-10T14:35:27Z</time>
      </trkpt>
      <trkpt lat="44.47881" lon="5.03539">
        <ele>389.48</ele>
        <time>2021-06-10T14:35:48Z</time>
      </trkpt>
      <trkpt lat="44.47874" lon="5.03516">
        <ele>386.43</ele>
        <time>2021-06-10T14:36:11Z</time>
      </trkpt>
      <trkpt lat="44.47872" lon="5.03489">
        <ele>383.99</ele>
        <time>2021-06-10T14:36:34Z</time>
      </trkpt>
      <trkpt lat="44.47871" lon="5.0345">
        <ele>381.95</ele>
        <time>2021-06-10T14:36:55Z</time>
      </trkpt>
      <trkpt lat="44.47871" lon="5.03444">
        <ele>381.75</ele>
        <time>2021-06-10T14:36:59Z</time>
      </trkpt>
      <trkpt lat="44.47869" lon="5.03409">
        <ele>379.8</ele>
        <time>2021-06-10T14:37:23Z</time>
      </trkpt>
      <trkpt lat="44.47868" lon="5.03383">
        <ele>378.85</ele>
        <time>2021-06-10T14:37:44Z</time>
      </trkpt>
      <trkpt lat="44.47864" lon="5.03343">
        <ele>378.28</ele>
        <time>2021-06-10T14:38:09Z</time>
      </trkpt>
      <trkpt lat="44.47862" lon="5.03335">
        <ele>378.1</ele>
        <time>2021-06-10T14:38:14Z</time>
      </trkpt>
      <trkpt lat="44.47852" lon="5.03304">
        <ele>376.92</ele>
        <time>2021-06-10T14:38:36Z</time>
      </trkpt>
      <trkpt lat="44.47849" lon="5.03297">
        <ele>376.51</ele>
        <time>2021-06-10T14:38:40Z</time>
      </trkpt>
      <trkpt lat="44.47843" lon="5.03275">
        <ele>375.29</ele>
        <time>2021-06-10T14:38:52Z</time>
      </trkpt>
      <trkpt lat="44.47832" lon="5.0325">
        <ele>373.92</ele>
        <time>2021-06-10T14:39:12Z</time>
      </trkpt>
      <trkpt lat="44.47822" lon="5.03227">
        <ele>373.41</ele>
        <time>2021-06-10T14:39:28Z</time>
      </trkpt>
      <trkpt lat="44.47818" lon="5.0321">
        <ele>372.94</ele>
        <time>2021-06-10T14:39:39Z</time>
      </trkpt>
      <trkpt lat="44.47815" lon="5.03179">
        <ele>371.59</ele>
        <time>2021-06-10T14:40:01Z</time>
      </trkpt>
      <trkpt lat="44.4781" lon="5.03145">
        <ele>369.34</ele>
        <time>2021-06-10T14:40:30Z</time>
      </trkpt>
      <trkpt lat="44.47803" lon="5.03114">
        <ele>366.28</ele>
        <time>2021-06-10T14:40:51Z</time>
      </trkpt>
      <trkpt lat="44.47797" lon="5.03086">
        <ele>363.21</ele>
        <time>2021-06-10T14:41:12Z</time>
      </trkpt>
      <trkpt lat="44.47793" lon="5.03062">
        <ele>361.34</ele>
        <time>2021-06-10T14:41:28Z</time>
      </trkpt>
      <trkpt lat="44.47791" lon="5.03034">
        <ele>358.79</ele>
        <time>2021-06-10T14:41:53Z</time>
      </trkpt>
      <trkpt lat="44.47788" lon="5.02999">
        <ele>355.8</ele>
        <time>2021-06-10T14:42:20Z</time>
      </trkpt>
      <trkpt lat="44.47786" lon="5.02975">
        <ele>352.69</ele>
        <time>2021-06-10T14:42:39Z</time>
      </trkpt>
      <trkpt lat="44.47782" lon="5.02947">
        <ele>349.61</ele>
        <time>2021-06-10T14:43:03Z</time>
      </trkpt>
      <trkpt lat="44.47774" lon="5.02937">
        <ele>347.42</ele>
        <time>2021-06-10T14:43:14Z</time>
      </trkpt>
      <trkpt lat="44.47746" lon="5.0292">
        <ele>346.07</ele>
        <time>2021-06-10T14:43:37Z</time>
      </trkpt>
      <trkpt lat="44.47724" lon="5.02912">
        <ele>345.24</ele>
        <time>2021-06-10T14:43:57Z</time>
      </trkpt>
      <trkpt lat="44.47712" lon="5.02911">
        <ele>345.24</ele>
        <time>2021-06-10T14:44:11Z</time>
      </trkpt>
      <trkpt lat="44.47703" lon="5.02911">
        <ele>347.68</ele>
        <time>2021-06-10T14:44:30Z</time>
      </trkpt>
      <trkpt lat="44.47699" lon="5.02912">
        <ele>347.67</ele>
        <time>2021-06-10T14:44:49Z</time>
      </trkpt>
      <trkpt lat="44.47689" lon="5.02899">
        <ele>348.02</ele>
        <time>2021-06-10T14:45:06Z</time>
      </trkpt>
      <trkpt lat="44.47685" lon="5.02897">
        <ele>334.4</ele>
        <time>2021-06-10T14:45:11Z</time>
      </trkpt>
    </trkseg>
  </trk>
</gpx>